<?xml version="1.0" encoding="UTF-8" standalone="no" ?>
<gpx xmlns="http://www.topografix.com/GPX/1/1" xmlns:xsi="http://www.w3.org/2001/XMLSchema-instance" xsi:schemaLocation="http://www.topografix.com/GPX/1/1 http://www.topografix.com/GPX/1/1/gpx.xsd" version="1.1" creator="VisuGPX - https://www.visugpx.com">
  <metadata>
    <name>V3C-Bonsecours-45km-2023</name>
  </metadata>
  <trk>
    <name><![CDATA[Bonsecours 45km - 2023-16788927]]></name>
    <trkseg>
      <trkpt lat="50.50259" lon="3.58877">
        <ele>43</ele>
        <time>2023-05-17T23:47:10Z</time>
      </trkpt>
      <trkpt lat="50.50208" lon="3.58885">
        <ele>42</ele>
        <time>2023-05-17T23:47:22Z</time>
      </trkpt>
      <trkpt lat="50.50196" lon="3.58924">
        <ele>42</ele>
        <time>2023-05-17T23:47:28Z</time>
      </trkpt>
      <trkpt lat="50.50077" lon="3.58924">
        <ele>41</ele>
        <time>2023-05-17T23:47:56Z</time>
      </trkpt>
      <trkpt lat="50.50031" lon="3.5892">
        <ele>41</ele>
        <time>2023-05-17T23:48:07Z</time>
      </trkpt>
      <trkpt lat="50.49879" lon="3.58938">
        <ele>39</ele>
        <time>2023-05-17T23:48:43Z</time>
      </trkpt>
      <trkpt lat="50.49748" lon="3.58988">
        <ele>39</ele>
        <time>2023-05-17T23:49:14Z</time>
      </trkpt>
      <trkpt lat="50.49509" lon="3.59076">
        <ele>40</ele>
        <time>2023-05-17T23:50:11Z</time>
      </trkpt>
      <trkpt lat="50.49355" lon="3.59161">
        <ele>42</ele>
        <time>2023-05-17T23:50:49Z</time>
      </trkpt>
      <trkpt lat="50.49129" lon="3.593">
        <ele>55</ele>
        <time>2023-05-17T23:51:46Z</time>
      </trkpt>
      <trkpt lat="50.49084" lon="3.59322">
        <ele>55</ele>
        <time>2023-05-17T23:51:57Z</time>
      </trkpt>
      <trkpt lat="50.49074" lon="3.59333">
        <ele>55</ele>
        <time>2023-05-17T23:52:00Z</time>
      </trkpt>
      <trkpt lat="50.49119" lon="3.59462">
        <ele>54</ele>
        <time>2023-05-17T23:52:22Z</time>
      </trkpt>
      <trkpt lat="50.49162" lon="3.59575">
        <ele>56</ele>
        <time>2023-05-17T23:52:41Z</time>
      </trkpt>
      <trkpt lat="50.49269" lon="3.59871">
        <ele>54</ele>
        <time>2023-05-17T23:53:32Z</time>
      </trkpt>
      <trkpt lat="50.49317" lon="3.60029">
        <ele>53</ele>
        <time>2023-05-17T23:53:58Z</time>
      </trkpt>
      <trkpt lat="50.49325" lon="3.60085">
        <ele>53</ele>
        <time>2023-05-17T23:54:07Z</time>
      </trkpt>
      <trkpt lat="50.49312" lon="3.60138">
        <ele>51</ele>
        <time>2023-05-17T23:54:15Z</time>
      </trkpt>
      <trkpt lat="50.49291" lon="3.60163">
        <ele>50</ele>
        <time>2023-05-17T23:54:21Z</time>
      </trkpt>
      <trkpt lat="50.49313" lon="3.60182">
        <ele>50</ele>
        <time>2023-05-17T23:54:27Z</time>
      </trkpt>
      <trkpt lat="50.49383" lon="3.60215">
        <ele>53</ele>
        <time>2023-05-17T23:54:44Z</time>
      </trkpt>
      <trkpt lat="50.49439" lon="3.6041">
        <ele>55</ele>
        <time>2023-05-17T23:55:16Z</time>
      </trkpt>
      <trkpt lat="50.49501" lon="3.60605">
        <ele>48</ele>
        <time>2023-05-17T23:55:48Z</time>
      </trkpt>
      <trkpt lat="50.4953" lon="3.60695">
        <ele>49</ele>
        <time>2023-05-17T23:56:03Z</time>
      </trkpt>
      <trkpt lat="50.49593" lon="3.60769">
        <ele>51</ele>
        <time>2023-05-17T23:56:22Z</time>
      </trkpt>
      <trkpt lat="50.49628" lon="3.6082">
        <ele>52</ele>
        <time>2023-05-17T23:56:33Z</time>
      </trkpt>
      <trkpt lat="50.49648" lon="3.60864">
        <ele>52</ele>
        <time>2023-05-17T23:56:41Z</time>
      </trkpt>
      <trkpt lat="50.49682" lon="3.60936">
        <ele>53</ele>
        <time>2023-05-17T23:56:54Z</time>
      </trkpt>
      <trkpt lat="50.49682" lon="3.61053">
        <ele>53</ele>
        <time>2023-05-17T23:57:11Z</time>
      </trkpt>
      <trkpt lat="50.49698" lon="3.61105">
        <ele>55</ele>
        <time>2023-05-17T23:57:20Z</time>
      </trkpt>
      <trkpt lat="50.49692" lon="3.61121">
        <ele>54</ele>
        <time>2023-05-17T23:57:23Z</time>
      </trkpt>
      <trkpt lat="50.49614" lon="3.61126">
        <ele>51</ele>
        <time>2023-05-17T23:57:41Z</time>
      </trkpt>
      <trkpt lat="50.49595" lon="3.61123">
        <ele>50</ele>
        <time>2023-05-17T23:57:45Z</time>
      </trkpt>
      <trkpt lat="50.49571" lon="3.61132">
        <ele>49</ele>
        <time>2023-05-17T23:57:51Z</time>
      </trkpt>
      <trkpt lat="50.49563" lon="3.61137">
        <ele>48</ele>
        <time>2023-05-17T23:57:53Z</time>
      </trkpt>
      <trkpt lat="50.49542" lon="3.61144">
        <ele>48</ele>
        <time>2023-05-17T23:57:58Z</time>
      </trkpt>
      <trkpt lat="50.49491" lon="3.61187">
        <ele>47</ele>
        <time>2023-05-17T23:58:12Z</time>
      </trkpt>
      <trkpt lat="50.49471" lon="3.61201">
        <ele>47</ele>
        <time>2023-05-17T23:58:17Z</time>
      </trkpt>
      <trkpt lat="50.49455" lon="3.61228">
        <ele>47</ele>
        <time>2023-05-17T23:58:22Z</time>
      </trkpt>
      <trkpt lat="50.49427" lon="3.61255">
        <ele>46</ele>
        <time>2023-05-17T23:58:30Z</time>
      </trkpt>
      <trkpt lat="50.49402" lon="3.61265">
        <ele>46</ele>
        <time>2023-05-17T23:58:36Z</time>
      </trkpt>
      <trkpt lat="50.49379" lon="3.61261">
        <ele>47</ele>
        <time>2023-05-17T23:58:41Z</time>
      </trkpt>
      <trkpt lat="50.49345" lon="3.61264">
        <ele>47</ele>
        <time>2023-05-17T23:58:49Z</time>
      </trkpt>
      <trkpt lat="50.49285" lon="3.613">
        <ele>48</ele>
        <time>2023-05-17T23:59:04Z</time>
      </trkpt>
      <trkpt lat="50.49258" lon="3.61338">
        <ele>48</ele>
        <time>2023-05-17T23:59:13Z</time>
      </trkpt>
      <trkpt lat="50.49248" lon="3.61373">
        <ele>47</ele>
        <time>2023-05-17T23:59:19Z</time>
      </trkpt>
      <trkpt lat="50.49175" lon="3.61432">
        <ele>48</ele>
        <time>2023-05-17T23:59:38Z</time>
      </trkpt>
      <trkpt lat="50.49152" lon="3.61475">
        <ele>47</ele>
        <time>2023-05-17T23:59:46Z</time>
      </trkpt>
      <trkpt lat="50.49123" lon="3.61485">
        <ele>47</ele>
        <time>2023-05-17T23:59:53Z</time>
      </trkpt>
      <trkpt lat="50.49063" lon="3.61539">
        <ele>46</ele>
        <time>2023-05-18T00:00:09Z</time>
      </trkpt>
      <trkpt lat="50.49039" lon="3.61535">
        <ele>45</ele>
        <time>2023-05-18T00:00:15Z</time>
      </trkpt>
      <trkpt lat="50.48993" lon="3.61563">
        <ele>43</ele>
        <time>2023-05-18T00:00:26Z</time>
      </trkpt>
      <trkpt lat="50.48951" lon="3.61613">
        <ele>42</ele>
        <time>2023-05-18T00:00:39Z</time>
      </trkpt>
      <trkpt lat="50.48905" lon="3.61662">
        <ele>43</ele>
        <time>2023-05-18T00:00:52Z</time>
      </trkpt>
      <trkpt lat="50.48866" lon="3.61707">
        <ele>42</ele>
        <time>2023-05-18T00:01:03Z</time>
      </trkpt>
      <trkpt lat="50.48838" lon="3.61739">
        <ele>43</ele>
        <time>2023-05-18T00:01:11Z</time>
      </trkpt>
      <trkpt lat="50.4877" lon="3.61815">
        <ele>39</ele>
        <time>2023-05-18T00:01:31Z</time>
      </trkpt>
      <trkpt lat="50.48718" lon="3.61876">
        <ele>39</ele>
        <time>2023-05-18T00:01:46Z</time>
      </trkpt>
      <trkpt lat="50.48683" lon="3.61916">
        <ele>39</ele>
        <time>2023-05-18T00:01:56Z</time>
      </trkpt>
      <trkpt lat="50.48646" lon="3.61989">
        <ele>39</ele>
        <time>2023-05-18T00:02:10Z</time>
      </trkpt>
      <trkpt lat="50.48597" lon="3.62084">
        <ele>39</ele>
        <time>2023-05-18T00:02:28Z</time>
      </trkpt>
      <trkpt lat="50.48567" lon="3.62142">
        <ele>38</ele>
        <time>2023-05-18T00:02:39Z</time>
      </trkpt>
      <trkpt lat="50.48521" lon="3.62234">
        <ele>35</ele>
        <time>2023-05-18T00:02:56Z</time>
      </trkpt>
      <trkpt lat="50.48501" lon="3.62272">
        <ele>34</ele>
        <time>2023-05-18T00:03:04Z</time>
      </trkpt>
      <trkpt lat="50.48629" lon="3.62306">
        <ele>42</ele>
        <time>2023-05-18T00:03:34Z</time>
      </trkpt>
      <trkpt lat="50.48731" lon="3.62333">
        <ele>43</ele>
        <time>2023-05-18T00:03:58Z</time>
      </trkpt>
      <trkpt lat="50.48828" lon="3.62359">
        <ele>45</ele>
        <time>2023-05-18T00:04:21Z</time>
      </trkpt>
      <trkpt lat="50.4893" lon="3.62386">
        <ele>47</ele>
        <time>2023-05-18T00:04:45Z</time>
      </trkpt>
      <trkpt lat="50.49043" lon="3.62416">
        <ele>47</ele>
        <time>2023-05-18T00:05:12Z</time>
      </trkpt>
      <trkpt lat="50.49086" lon="3.62428">
        <ele>47</ele>
        <time>2023-05-18T00:05:22Z</time>
      </trkpt>
      <trkpt lat="50.49138" lon="3.62442">
        <ele>46</ele>
        <time>2023-05-18T00:05:35Z</time>
      </trkpt>
      <trkpt lat="50.49221" lon="3.62463">
        <ele>44</ele>
        <time>2023-05-18T00:05:54Z</time>
      </trkpt>
      <trkpt lat="50.49253" lon="3.62624">
        <ele>46</ele>
        <time>2023-05-18T00:06:19Z</time>
      </trkpt>
      <trkpt lat="50.49288" lon="3.62803">
        <ele>47</ele>
        <time>2023-05-18T00:06:47Z</time>
      </trkpt>
      <trkpt lat="50.49335" lon="3.63046">
        <ele>49</ele>
        <time>2023-05-18T00:07:25Z</time>
      </trkpt>
      <trkpt lat="50.49368" lon="3.63219">
        <ele>50</ele>
        <time>2023-05-18T00:07:52Z</time>
      </trkpt>
      <trkpt lat="50.49394" lon="3.63356">
        <ele>52</ele>
        <time>2023-05-18T00:08:13Z</time>
      </trkpt>
      <trkpt lat="50.49456" lon="3.63306">
        <ele>54</ele>
        <time>2023-05-18T00:08:29Z</time>
      </trkpt>
      <trkpt lat="50.4949" lon="3.63273">
        <ele>55</ele>
        <time>2023-05-18T00:08:38Z</time>
      </trkpt>
      <trkpt lat="50.49513" lon="3.63239">
        <ele>56</ele>
        <time>2023-05-18T00:08:46Z</time>
      </trkpt>
      <trkpt lat="50.49522" lon="3.63303">
        <ele>57</ele>
        <time>2023-05-18T00:08:56Z</time>
      </trkpt>
      <trkpt lat="50.49546" lon="3.63463">
        <ele>62</ele>
        <time>2023-05-18T00:09:20Z</time>
      </trkpt>
      <trkpt lat="50.49559" lon="3.63537">
        <ele>63</ele>
        <time>2023-05-18T00:09:31Z</time>
      </trkpt>
      <trkpt lat="50.49559" lon="3.636">
        <ele>62</ele>
        <time>2023-05-18T00:09:41Z</time>
      </trkpt>
      <trkpt lat="50.49604" lon="3.63701">
        <ele>63</ele>
        <time>2023-05-18T00:09:59Z</time>
      </trkpt>
      <trkpt lat="50.4965" lon="3.63729">
        <ele>65</ele>
        <time>2023-05-18T00:10:11Z</time>
      </trkpt>
      <trkpt lat="50.49703" lon="3.6375">
        <ele>63</ele>
        <time>2023-05-18T00:10:23Z</time>
      </trkpt>
      <trkpt lat="50.49783" lon="3.63781">
        <ele>60</ele>
        <time>2023-05-18T00:10:43Z</time>
      </trkpt>
      <trkpt lat="50.49788" lon="3.63792">
        <ele>60</ele>
        <time>2023-05-18T00:10:45Z</time>
      </trkpt>
      <trkpt lat="50.49779" lon="3.63811">
        <ele>61</ele>
        <time>2023-05-18T00:10:48Z</time>
      </trkpt>
      <trkpt lat="50.49721" lon="3.6392">
        <ele>62</ele>
        <time>2023-05-18T00:11:09Z</time>
      </trkpt>
      <trkpt lat="50.49696" lon="3.63965">
        <ele>59</ele>
        <time>2023-05-18T00:11:18Z</time>
      </trkpt>
      <trkpt lat="50.49654" lon="3.64026">
        <ele>57</ele>
        <time>2023-05-18T00:11:31Z</time>
      </trkpt>
      <trkpt lat="50.49636" lon="3.64046">
        <ele>57</ele>
        <time>2023-05-18T00:11:37Z</time>
      </trkpt>
      <trkpt lat="50.49578" lon="3.64108">
        <ele>53</ele>
        <time>2023-05-18T00:11:53Z</time>
      </trkpt>
      <trkpt lat="50.49566" lon="3.64157">
        <ele>50</ele>
        <time>2023-05-18T00:12:01Z</time>
      </trkpt>
      <trkpt lat="50.49562" lon="3.64208">
        <ele>48</ele>
        <time>2023-05-18T00:12:08Z</time>
      </trkpt>
      <trkpt lat="50.49567" lon="3.6423">
        <ele>48</ele>
        <time>2023-05-18T00:12:12Z</time>
      </trkpt>
      <trkpt lat="50.49577" lon="3.64293">
        <ele>47</ele>
        <time>2023-05-18T00:12:22Z</time>
      </trkpt>
      <trkpt lat="50.49582" lon="3.64317">
        <ele>47</ele>
        <time>2023-05-18T00:12:25Z</time>
      </trkpt>
      <trkpt lat="50.49593" lon="3.64333">
        <ele>47</ele>
        <time>2023-05-18T00:12:29Z</time>
      </trkpt>
      <trkpt lat="50.49608" lon="3.64334">
        <ele>46</ele>
        <time>2023-05-18T00:12:32Z</time>
      </trkpt>
      <trkpt lat="50.49618" lon="3.64317">
        <ele>47</ele>
        <time>2023-05-18T00:12:36Z</time>
      </trkpt>
      <trkpt lat="50.49634" lon="3.64289">
        <ele>48</ele>
        <time>2023-05-18T00:12:41Z</time>
      </trkpt>
      <trkpt lat="50.49645" lon="3.64276">
        <ele>49</ele>
        <time>2023-05-18T00:12:45Z</time>
      </trkpt>
      <trkpt lat="50.49651" lon="3.64254">
        <ele>50</ele>
        <time>2023-05-18T00:12:48Z</time>
      </trkpt>
      <trkpt lat="50.49646" lon="3.64235">
        <ele>51</ele>
        <time>2023-05-18T00:12:51Z</time>
      </trkpt>
      <trkpt lat="50.49659" lon="3.64207">
        <ele>53</ele>
        <time>2023-05-18T00:12:56Z</time>
      </trkpt>
      <trkpt lat="50.49666" lon="3.64198">
        <ele>53</ele>
        <time>2023-05-18T00:12:58Z</time>
      </trkpt>
      <trkpt lat="50.49676" lon="3.64194">
        <ele>53</ele>
        <time>2023-05-18T00:13:01Z</time>
      </trkpt>
      <trkpt lat="50.49689" lon="3.64168">
        <ele>53</ele>
        <time>2023-05-18T00:13:06Z</time>
      </trkpt>
      <trkpt lat="50.49699" lon="3.64149">
        <ele>53</ele>
        <time>2023-05-18T00:13:09Z</time>
      </trkpt>
      <trkpt lat="50.49731" lon="3.64098">
        <ele>53</ele>
        <time>2023-05-18T00:13:20Z</time>
      </trkpt>
      <trkpt lat="50.49785" lon="3.64014">
        <ele>54</ele>
        <time>2023-05-18T00:13:38Z</time>
      </trkpt>
      <trkpt lat="50.49841" lon="3.63925">
        <ele>56</ele>
        <time>2023-05-18T00:13:56Z</time>
      </trkpt>
      <trkpt lat="50.49872" lon="3.63876">
        <ele>54</ele>
        <time>2023-05-18T00:14:07Z</time>
      </trkpt>
      <trkpt lat="50.49874" lon="3.63859">
        <ele>54</ele>
        <time>2023-05-18T00:14:09Z</time>
      </trkpt>
      <trkpt lat="50.49887" lon="3.63851">
        <ele>53</ele>
        <time>2023-05-18T00:14:12Z</time>
      </trkpt>
      <trkpt lat="50.49896" lon="3.63843">
        <ele>53</ele>
        <time>2023-05-18T00:14:15Z</time>
      </trkpt>
      <trkpt lat="50.49929" lon="3.63831">
        <ele>51</ele>
        <time>2023-05-18T00:14:23Z</time>
      </trkpt>
      <trkpt lat="50.4994" lon="3.6382">
        <ele>49</ele>
        <time>2023-05-18T00:14:26Z</time>
      </trkpt>
      <trkpt lat="50.49947" lon="3.63801">
        <ele>49</ele>
        <time>2023-05-18T00:14:29Z</time>
      </trkpt>
      <trkpt lat="50.49956" lon="3.63804">
        <ele>48</ele>
        <time>2023-05-18T00:14:31Z</time>
      </trkpt>
      <trkpt lat="50.49965" lon="3.6379">
        <ele>47</ele>
        <time>2023-05-18T00:14:34Z</time>
      </trkpt>
      <trkpt lat="50.49966" lon="3.63777">
        <ele>47</ele>
        <time>2023-05-18T00:14:36Z</time>
      </trkpt>
      <trkpt lat="50.49977" lon="3.6377">
        <ele>46</ele>
        <time>2023-05-18T00:14:39Z</time>
      </trkpt>
      <trkpt lat="50.49985" lon="3.63772">
        <ele>45</ele>
        <time>2023-05-18T00:14:41Z</time>
      </trkpt>
      <trkpt lat="50.49974" lon="3.63797">
        <ele>46</ele>
        <time>2023-05-18T00:14:45Z</time>
      </trkpt>
      <trkpt lat="50.49961" lon="3.63824">
        <ele>47</ele>
        <time>2023-05-18T00:14:50Z</time>
      </trkpt>
      <trkpt lat="50.49945" lon="3.63854">
        <ele>48</ele>
        <time>2023-05-18T00:14:56Z</time>
      </trkpt>
      <trkpt lat="50.49938" lon="3.63879">
        <ele>48</ele>
        <time>2023-05-18T00:15:00Z</time>
      </trkpt>
      <trkpt lat="50.49891" lon="3.63938">
        <ele>51</ele>
        <time>2023-05-18T00:15:14Z</time>
      </trkpt>
      <trkpt lat="50.49853" lon="3.63992">
        <ele>50</ele>
        <time>2023-05-18T00:15:26Z</time>
      </trkpt>
      <trkpt lat="50.49801" lon="3.64069">
        <ele>50</ele>
        <time>2023-05-18T00:15:43Z</time>
      </trkpt>
      <trkpt lat="50.49741" lon="3.64167">
        <ele>50</ele>
        <time>2023-05-18T00:16:03Z</time>
      </trkpt>
      <trkpt lat="50.49659" lon="3.64314">
        <ele>46</ele>
        <time>2023-05-18T00:16:32Z</time>
      </trkpt>
      <trkpt lat="50.49634" lon="3.64361">
        <ele>45</ele>
        <time>2023-05-18T00:16:41Z</time>
      </trkpt>
      <trkpt lat="50.49613" lon="3.64383">
        <ele>45</ele>
        <time>2023-05-18T00:16:47Z</time>
      </trkpt>
      <trkpt lat="50.49597" lon="3.64409">
        <ele>44</ele>
        <time>2023-05-18T00:16:53Z</time>
      </trkpt>
      <trkpt lat="50.49563" lon="3.64487">
        <ele>43</ele>
        <time>2023-05-18T00:17:07Z</time>
      </trkpt>
      <trkpt lat="50.49538" lon="3.64556">
        <ele>43</ele>
        <time>2023-05-18T00:17:18Z</time>
      </trkpt>
      <trkpt lat="50.49514" lon="3.64622">
        <ele>42</ele>
        <time>2023-05-18T00:17:30Z</time>
      </trkpt>
      <trkpt lat="50.49489" lon="3.64685">
        <ele>40</ele>
        <time>2023-05-18T00:17:41Z</time>
      </trkpt>
      <trkpt lat="50.49457" lon="3.64766">
        <ele>38</ele>
        <time>2023-05-18T00:17:55Z</time>
      </trkpt>
      <trkpt lat="50.49435" lon="3.64834">
        <ele>37</ele>
        <time>2023-05-18T00:18:06Z</time>
      </trkpt>
      <trkpt lat="50.49407" lon="3.64929">
        <ele>37</ele>
        <time>2023-05-18T00:18:22Z</time>
      </trkpt>
      <trkpt lat="50.49395" lon="3.64966">
        <ele>35</ele>
        <time>2023-05-18T00:18:28Z</time>
      </trkpt>
      <trkpt lat="50.49398" lon="3.6498">
        <ele>35</ele>
        <time>2023-05-18T00:18:30Z</time>
      </trkpt>
      <trkpt lat="50.49381" lon="3.6504">
        <ele>33</ele>
        <time>2023-05-18T00:18:40Z</time>
      </trkpt>
      <trkpt lat="50.49323" lon="3.65232">
        <ele>31</ele>
        <time>2023-05-18T00:19:11Z</time>
      </trkpt>
      <trkpt lat="50.49281" lon="3.65375">
        <ele>34</ele>
        <time>2023-05-18T00:19:35Z</time>
      </trkpt>
      <trkpt lat="50.49228" lon="3.65549">
        <ele>36</ele>
        <time>2023-05-18T00:20:04Z</time>
      </trkpt>
      <trkpt lat="50.49214" lon="3.65582">
        <ele>36</ele>
        <time>2023-05-18T00:20:09Z</time>
      </trkpt>
      <trkpt lat="50.49211" lon="3.65588">
        <ele>36</ele>
        <time>2023-05-18T00:20:11Z</time>
      </trkpt>
      <trkpt lat="50.49187" lon="3.65671">
        <ele>35</ele>
        <time>2023-05-18T00:20:24Z</time>
      </trkpt>
      <trkpt lat="50.49165" lon="3.65741">
        <ele>31</ele>
        <time>2023-05-18T00:20:36Z</time>
      </trkpt>
      <trkpt lat="50.49135" lon="3.65809">
        <ele>29</ele>
        <time>2023-05-18T00:20:48Z</time>
      </trkpt>
      <trkpt lat="50.49117" lon="3.65851">
        <ele>29</ele>
        <time>2023-05-18T00:20:56Z</time>
      </trkpt>
      <trkpt lat="50.49069" lon="3.65941">
        <ele>31</ele>
        <time>2023-05-18T00:21:13Z</time>
      </trkpt>
      <trkpt lat="50.49053" lon="3.65969">
        <ele>31</ele>
        <time>2023-05-18T00:21:19Z</time>
      </trkpt>
      <trkpt lat="50.49067" lon="3.65999">
        <ele>31</ele>
        <time>2023-05-18T00:21:24Z</time>
      </trkpt>
      <trkpt lat="50.49068" lon="3.66025">
        <ele>32</ele>
        <time>2023-05-18T00:21:28Z</time>
      </trkpt>
      <trkpt lat="50.49074" lon="3.66066">
        <ele>33</ele>
        <time>2023-05-18T00:21:34Z</time>
      </trkpt>
      <trkpt lat="50.49048" lon="3.66141">
        <ele>34</ele>
        <time>2023-05-18T00:21:47Z</time>
      </trkpt>
      <trkpt lat="50.49024" lon="3.66227">
        <ele>35</ele>
        <time>2023-05-18T00:22:01Z</time>
      </trkpt>
      <trkpt lat="50.49001" lon="3.6621">
        <ele>35</ele>
        <time>2023-05-18T00:22:07Z</time>
      </trkpt>
      <trkpt lat="50.48981" lon="3.66178">
        <ele>34</ele>
        <time>2023-05-18T00:22:13Z</time>
      </trkpt>
      <trkpt lat="50.4897" lon="3.66156">
        <ele>34</ele>
        <time>2023-05-18T00:22:18Z</time>
      </trkpt>
      <trkpt lat="50.48969" lon="3.66128">
        <ele>35</ele>
        <time>2023-05-18T00:22:22Z</time>
      </trkpt>
      <trkpt lat="50.48965" lon="3.66121">
        <ele>35</ele>
        <time>2023-05-18T00:22:23Z</time>
      </trkpt>
      <trkpt lat="50.48844" lon="3.66258">
        <ele>30</ele>
        <time>2023-05-18T00:22:58Z</time>
      </trkpt>
      <trkpt lat="50.48773" lon="3.6634">
        <ele>30</ele>
        <time>2023-05-18T00:23:19Z</time>
      </trkpt>
      <trkpt lat="50.48765" lon="3.66341">
        <ele>30</ele>
        <time>2023-05-18T00:23:20Z</time>
      </trkpt>
      <trkpt lat="50.48743" lon="3.66364">
        <ele>30</ele>
        <time>2023-05-18T00:23:27Z</time>
      </trkpt>
      <trkpt lat="50.48727" lon="3.66394">
        <ele>30</ele>
        <time>2023-05-18T00:23:32Z</time>
      </trkpt>
      <trkpt lat="50.48636" lon="3.66499">
        <ele>30</ele>
        <time>2023-05-18T00:23:59Z</time>
      </trkpt>
      <trkpt lat="50.48593" lon="3.6655">
        <ele>30</ele>
        <time>2023-05-18T00:24:11Z</time>
      </trkpt>
      <trkpt lat="50.48544" lon="3.66608">
        <ele>30</ele>
        <time>2023-05-18T00:24:26Z</time>
      </trkpt>
      <trkpt lat="50.48503" lon="3.66655">
        <ele>31</ele>
        <time>2023-05-18T00:24:38Z</time>
      </trkpt>
      <trkpt lat="50.4846" lon="3.66694">
        <ele>30</ele>
        <time>2023-05-18T00:24:49Z</time>
      </trkpt>
      <trkpt lat="50.4842" lon="3.66751">
        <ele>29</ele>
        <time>2023-05-18T00:25:02Z</time>
      </trkpt>
      <trkpt lat="50.48355" lon="3.6683">
        <ele>28</ele>
        <time>2023-05-18T00:25:21Z</time>
      </trkpt>
      <trkpt lat="50.4829" lon="3.66906">
        <ele>25</ele>
        <time>2023-05-18T00:25:40Z</time>
      </trkpt>
      <trkpt lat="50.48261" lon="3.66942">
        <ele>24</ele>
        <time>2023-05-18T00:25:48Z</time>
      </trkpt>
      <trkpt lat="50.48195" lon="3.67012">
        <ele>26</ele>
        <time>2023-05-18T00:26:07Z</time>
      </trkpt>
      <trkpt lat="50.48172" lon="3.67022">
        <ele>26</ele>
        <time>2023-05-18T00:26:13Z</time>
      </trkpt>
      <trkpt lat="50.4809" lon="3.67133">
        <ele>27</ele>
        <time>2023-05-18T00:26:38Z</time>
      </trkpt>
      <trkpt lat="50.48052" lon="3.67178">
        <ele>27</ele>
        <time>2023-05-18T00:26:49Z</time>
      </trkpt>
      <trkpt lat="50.47989" lon="3.67251">
        <ele>25</ele>
        <time>2023-05-18T00:27:07Z</time>
      </trkpt>
      <trkpt lat="50.47958" lon="3.67288">
        <ele>23</ele>
        <time>2023-05-18T00:27:16Z</time>
      </trkpt>
      <trkpt lat="50.47944" lon="3.67304">
        <ele>23</ele>
        <time>2023-05-18T00:27:20Z</time>
      </trkpt>
      <trkpt lat="50.479" lon="3.67351">
        <ele>23</ele>
        <time>2023-05-18T00:27:33Z</time>
      </trkpt>
      <trkpt lat="50.47884" lon="3.67358">
        <ele>22</ele>
        <time>2023-05-18T00:27:37Z</time>
      </trkpt>
      <trkpt lat="50.47871" lon="3.67369">
        <ele>22</ele>
        <time>2023-05-18T00:27:40Z</time>
      </trkpt>
      <trkpt lat="50.4786" lon="3.67389">
        <ele>22</ele>
        <time>2023-05-18T00:27:44Z</time>
      </trkpt>
      <trkpt lat="50.47791" lon="3.67475">
        <ele>20</ele>
        <time>2023-05-18T00:28:05Z</time>
      </trkpt>
      <trkpt lat="50.47766" lon="3.67505">
        <ele>19</ele>
        <time>2023-05-18T00:28:12Z</time>
      </trkpt>
      <trkpt lat="50.47697" lon="3.67585">
        <ele>20</ele>
        <time>2023-05-18T00:28:32Z</time>
      </trkpt>
      <trkpt lat="50.47675" lon="3.67613">
        <ele>20</ele>
        <time>2023-05-18T00:28:39Z</time>
      </trkpt>
      <trkpt lat="50.47592" lon="3.67706">
        <ele>20</ele>
        <time>2023-05-18T00:29:02Z</time>
      </trkpt>
      <trkpt lat="50.47548" lon="3.67758">
        <ele>22</ele>
        <time>2023-05-18T00:29:15Z</time>
      </trkpt>
      <trkpt lat="50.47501" lon="3.67813">
        <ele>23</ele>
        <time>2023-05-18T00:29:29Z</time>
      </trkpt>
      <trkpt lat="50.47477" lon="3.67839">
        <ele>24</ele>
        <time>2023-05-18T00:29:36Z</time>
      </trkpt>
      <trkpt lat="50.4745" lon="3.67872">
        <ele>24</ele>
        <time>2023-05-18T00:29:44Z</time>
      </trkpt>
      <trkpt lat="50.47392" lon="3.67937">
        <ele>23</ele>
        <time>2023-05-18T00:30:00Z</time>
      </trkpt>
      <trkpt lat="50.47354" lon="3.67976">
        <ele>24</ele>
        <time>2023-05-18T00:30:11Z</time>
      </trkpt>
      <trkpt lat="50.4734" lon="3.68015">
        <ele>24</ele>
        <time>2023-05-18T00:30:18Z</time>
      </trkpt>
      <trkpt lat="50.47326" lon="3.68078">
        <ele>25</ele>
        <time>2023-05-18T00:30:28Z</time>
      </trkpt>
      <trkpt lat="50.47313" lon="3.68139">
        <ele>26</ele>
        <time>2023-05-18T00:30:37Z</time>
      </trkpt>
      <trkpt lat="50.47316" lon="3.68191">
        <ele>27</ele>
        <time>2023-05-18T00:30:45Z</time>
      </trkpt>
      <trkpt lat="50.47319" lon="3.68221">
        <ele>27</ele>
        <time>2023-05-18T00:30:49Z</time>
      </trkpt>
      <trkpt lat="50.4734" lon="3.68291">
        <ele>25</ele>
        <time>2023-05-18T00:31:01Z</time>
      </trkpt>
      <trkpt lat="50.47364" lon="3.68356">
        <ele>24</ele>
        <time>2023-05-18T00:31:12Z</time>
      </trkpt>
      <trkpt lat="50.4738" lon="3.68385">
        <ele>25</ele>
        <time>2023-05-18T00:31:18Z</time>
      </trkpt>
      <trkpt lat="50.47386" lon="3.68403">
        <ele>25</ele>
        <time>2023-05-18T00:31:21Z</time>
      </trkpt>
      <trkpt lat="50.47404" lon="3.68417">
        <ele>26</ele>
        <time>2023-05-18T00:31:26Z</time>
      </trkpt>
      <trkpt lat="50.47421" lon="3.68424">
        <ele>26</ele>
        <time>2023-05-18T00:31:30Z</time>
      </trkpt>
      <trkpt lat="50.47425" lon="3.68441">
        <ele>26</ele>
        <time>2023-05-18T00:31:32Z</time>
      </trkpt>
      <trkpt lat="50.47439" lon="3.6846">
        <ele>25</ele>
        <time>2023-05-18T00:31:37Z</time>
      </trkpt>
      <trkpt lat="50.47435" lon="3.68488">
        <ele>26</ele>
        <time>2023-05-18T00:31:41Z</time>
      </trkpt>
      <trkpt lat="50.47413" lon="3.68508">
        <ele>27</ele>
        <time>2023-05-18T00:31:47Z</time>
      </trkpt>
      <trkpt lat="50.47381" lon="3.68539">
        <ele>26</ele>
        <time>2023-05-18T00:31:56Z</time>
      </trkpt>
      <trkpt lat="50.47324" lon="3.68601">
        <ele>24</ele>
        <time>2023-05-18T00:32:12Z</time>
      </trkpt>
      <trkpt lat="50.47301" lon="3.68674">
        <ele>23</ele>
        <time>2023-05-18T00:32:24Z</time>
      </trkpt>
      <trkpt lat="50.47255" lon="3.689">
        <ele>18</ele>
        <time>2023-05-18T00:32:59Z</time>
      </trkpt>
      <trkpt lat="50.47386" lon="3.68996">
        <ele>21</ele>
        <time>2023-05-18T00:33:33Z</time>
      </trkpt>
      <trkpt lat="50.47494" lon="3.69091">
        <ele>22</ele>
        <time>2023-05-18T00:34:02Z</time>
      </trkpt>
      <trkpt lat="50.47515" lon="3.69162">
        <ele>22</ele>
        <time>2023-05-18T00:34:14Z</time>
      </trkpt>
      <trkpt lat="50.47532" lon="3.69188">
        <ele>22</ele>
        <time>2023-05-18T00:34:19Z</time>
      </trkpt>
      <trkpt lat="50.47549" lon="3.69189">
        <ele>22</ele>
        <time>2023-05-18T00:34:23Z</time>
      </trkpt>
      <trkpt lat="50.47563" lon="3.69171">
        <ele>21</ele>
        <time>2023-05-18T00:34:27Z</time>
      </trkpt>
      <trkpt lat="50.47582" lon="3.69201">
        <ele>21</ele>
        <time>2023-05-18T00:34:34Z</time>
      </trkpt>
      <trkpt lat="50.47611" lon="3.69317">
        <ele>23</ele>
        <time>2023-05-18T00:34:52Z</time>
      </trkpt>
      <trkpt lat="50.47618" lon="3.69406">
        <ele>24</ele>
        <time>2023-05-18T00:35:05Z</time>
      </trkpt>
      <trkpt lat="50.47706" lon="3.69405">
        <ele>25</ele>
        <time>2023-05-18T00:35:26Z</time>
      </trkpt>
      <trkpt lat="50.47824" lon="3.69374">
        <ele>26</ele>
        <time>2023-05-18T00:35:54Z</time>
      </trkpt>
      <trkpt lat="50.47826" lon="3.69452">
        <ele>26</ele>
        <time>2023-05-18T00:36:05Z</time>
      </trkpt>
      <trkpt lat="50.47831" lon="3.69459">
        <ele>26</ele>
        <time>2023-05-18T00:36:07Z</time>
      </trkpt>
      <trkpt lat="50.47859" lon="3.69474">
        <ele>26</ele>
        <time>2023-05-18T00:36:14Z</time>
      </trkpt>
      <trkpt lat="50.47891" lon="3.69502">
        <ele>26</ele>
        <time>2023-05-18T00:36:23Z</time>
      </trkpt>
      <trkpt lat="50.47926" lon="3.6957">
        <ele>28</ele>
        <time>2023-05-18T00:36:35Z</time>
      </trkpt>
      <trkpt lat="50.47968" lon="3.69623">
        <ele>29</ele>
        <time>2023-05-18T00:36:48Z</time>
      </trkpt>
      <trkpt lat="50.47978" lon="3.696">
        <ele>30</ele>
        <time>2023-05-18T00:36:52Z</time>
      </trkpt>
      <trkpt lat="50.48015" lon="3.69679">
        <ele>30</ele>
        <time>2023-05-18T00:37:07Z</time>
      </trkpt>
      <trkpt lat="50.48023" lon="3.69715">
        <ele>29</ele>
        <time>2023-05-18T00:37:12Z</time>
      </trkpt>
      <trkpt lat="50.48022" lon="3.69741">
        <ele>29</ele>
        <time>2023-05-18T00:37:16Z</time>
      </trkpt>
      <trkpt lat="50.48012" lon="3.698">
        <ele>27</ele>
        <time>2023-05-18T00:37:25Z</time>
      </trkpt>
      <trkpt lat="50.48002" lon="3.69894">
        <ele>27</ele>
        <time>2023-05-18T00:37:40Z</time>
      </trkpt>
      <trkpt lat="50.47996" lon="3.69956">
        <ele>27</ele>
        <time>2023-05-18T00:37:49Z</time>
      </trkpt>
      <trkpt lat="50.47997" lon="3.69982">
        <ele>27</ele>
        <time>2023-05-18T00:37:53Z</time>
      </trkpt>
      <trkpt lat="50.48005" lon="3.70049">
        <ele>29</ele>
        <time>2023-05-18T00:38:03Z</time>
      </trkpt>
      <trkpt lat="50.48014" lon="3.70097">
        <ele>30</ele>
        <time>2023-05-18T00:38:10Z</time>
      </trkpt>
      <trkpt lat="50.48025" lon="3.70142">
        <ele>30</ele>
        <time>2023-05-18T00:38:17Z</time>
      </trkpt>
      <trkpt lat="50.4798" lon="3.70209">
        <ele>29</ele>
        <time>2023-05-18T00:38:32Z</time>
      </trkpt>
      <trkpt lat="50.47935" lon="3.7027">
        <ele>29</ele>
        <time>2023-05-18T00:38:46Z</time>
      </trkpt>
      <trkpt lat="50.47898" lon="3.70333">
        <ele>32</ele>
        <time>2023-05-18T00:38:59Z</time>
      </trkpt>
      <trkpt lat="50.47824" lon="3.70438">
        <ele>30</ele>
        <time>2023-05-18T00:39:22Z</time>
      </trkpt>
      <trkpt lat="50.47735" lon="3.70561">
        <ele>28</ele>
        <time>2023-05-18T00:39:50Z</time>
      </trkpt>
      <trkpt lat="50.477" lon="3.70609">
        <ele>27</ele>
        <time>2023-05-18T00:40:00Z</time>
      </trkpt>
      <trkpt lat="50.47636" lon="3.70665">
        <ele>25</ele>
        <time>2023-05-18T00:40:18Z</time>
      </trkpt>
      <trkpt lat="50.4759" lon="3.70702">
        <ele>25</ele>
        <time>2023-05-18T00:40:30Z</time>
      </trkpt>
      <trkpt lat="50.47549" lon="3.70734">
        <ele>24</ele>
        <time>2023-05-18T00:40:40Z</time>
      </trkpt>
      <trkpt lat="50.47539" lon="3.70731">
        <ele>24</ele>
        <time>2023-05-18T00:40:43Z</time>
      </trkpt>
      <trkpt lat="50.47527" lon="3.70765">
        <ele>24</ele>
        <time>2023-05-18T00:40:48Z</time>
      </trkpt>
      <trkpt lat="50.47508" lon="3.70792">
        <ele>24</ele>
        <time>2023-05-18T00:40:54Z</time>
      </trkpt>
      <trkpt lat="50.47494" lon="3.70842">
        <ele>23</ele>
        <time>2023-05-18T00:41:03Z</time>
      </trkpt>
      <trkpt lat="50.47498" lon="3.70871">
        <ele>23</ele>
        <time>2023-05-18T00:41:07Z</time>
      </trkpt>
      <trkpt lat="50.47469" lon="3.70902">
        <ele>21</ele>
        <time>2023-05-18T00:41:15Z</time>
      </trkpt>
      <trkpt lat="50.47471" lon="3.70932">
        <ele>21</ele>
        <time>2023-05-18T00:41:20Z</time>
      </trkpt>
      <trkpt lat="50.47491" lon="3.70961">
        <ele>22</ele>
        <time>2023-05-18T00:41:26Z</time>
      </trkpt>
      <trkpt lat="50.475" lon="3.70963">
        <ele>23</ele>
        <time>2023-05-18T00:41:28Z</time>
      </trkpt>
      <trkpt lat="50.47509" lon="3.70957">
        <ele>23</ele>
        <time>2023-05-18T00:41:30Z</time>
      </trkpt>
      <trkpt lat="50.47568" lon="3.70855">
        <ele>26</ele>
        <time>2023-05-18T00:41:51Z</time>
      </trkpt>
      <trkpt lat="50.47578" lon="3.70847">
        <ele>27</ele>
        <time>2023-05-18T00:41:53Z</time>
      </trkpt>
      <trkpt lat="50.4759" lon="3.70848">
        <ele>27</ele>
        <time>2023-05-18T00:41:56Z</time>
      </trkpt>
      <trkpt lat="50.47598" lon="3.70861">
        <ele>27</ele>
        <time>2023-05-18T00:41:59Z</time>
      </trkpt>
      <trkpt lat="50.47602" lon="3.70886">
        <ele>27</ele>
        <time>2023-05-18T00:42:03Z</time>
      </trkpt>
      <trkpt lat="50.47633" lon="3.70871">
        <ele>28</ele>
        <time>2023-05-18T00:42:10Z</time>
      </trkpt>
      <trkpt lat="50.47649" lon="3.70874">
        <ele>29</ele>
        <time>2023-05-18T00:42:14Z</time>
      </trkpt>
      <trkpt lat="50.4767" lon="3.70897">
        <ele>29</ele>
        <time>2023-05-18T00:42:20Z</time>
      </trkpt>
      <trkpt lat="50.47723" lon="3.7095">
        <ele>29</ele>
        <time>2023-05-18T00:42:35Z</time>
      </trkpt>
      <trkpt lat="50.47779" lon="3.71007">
        <ele>30</ele>
        <time>2023-05-18T00:42:50Z</time>
      </trkpt>
      <trkpt lat="50.47798" lon="3.71019">
        <ele>31</ele>
        <time>2023-05-18T00:42:55Z</time>
      </trkpt>
      <trkpt lat="50.47845" lon="3.70993">
        <ele>31</ele>
        <time>2023-05-18T00:43:07Z</time>
      </trkpt>
      <trkpt lat="50.47898" lon="3.70959">
        <ele>34</ele>
        <time>2023-05-18T00:43:20Z</time>
      </trkpt>
      <trkpt lat="50.47919" lon="3.70947">
        <ele>36</ele>
        <time>2023-05-18T00:43:25Z</time>
      </trkpt>
      <trkpt lat="50.47933" lon="3.70945">
        <ele>36</ele>
        <time>2023-05-18T00:43:29Z</time>
      </trkpt>
      <trkpt lat="50.47943" lon="3.70951">
        <ele>36</ele>
        <time>2023-05-18T00:43:31Z</time>
      </trkpt>
      <trkpt lat="50.47967" lon="3.70971">
        <ele>36</ele>
        <time>2023-05-18T00:43:37Z</time>
      </trkpt>
      <trkpt lat="50.48015" lon="3.71021">
        <ele>37</ele>
        <time>2023-05-18T00:43:51Z</time>
      </trkpt>
      <trkpt lat="50.48042" lon="3.71047">
        <ele>37</ele>
        <time>2023-05-18T00:43:58Z</time>
      </trkpt>
      <trkpt lat="50.48051" lon="3.71035">
        <ele>37</ele>
        <time>2023-05-18T00:44:01Z</time>
      </trkpt>
      <trkpt lat="50.48085" lon="3.70993">
        <ele>36</ele>
        <time>2023-05-18T00:44:11Z</time>
      </trkpt>
      <trkpt lat="50.48076" lon="3.70833">
        <ele>43</ele>
        <time>2023-05-18T00:44:35Z</time>
      </trkpt>
      <trkpt lat="50.48075" lon="3.70775">
        <ele>45</ele>
        <time>2023-05-18T00:44:44Z</time>
      </trkpt>
      <trkpt lat="50.48063" lon="3.70682">
        <ele>45</ele>
        <time>2023-05-18T00:44:58Z</time>
      </trkpt>
      <trkpt lat="50.48042" lon="3.70531">
        <ele>38</ele>
        <time>2023-05-18T00:45:21Z</time>
      </trkpt>
      <trkpt lat="50.4801" lon="3.70478">
        <ele>37</ele>
        <time>2023-05-18T00:45:32Z</time>
      </trkpt>
      <trkpt lat="50.47961" lon="3.70419">
        <ele>34</ele>
        <time>2023-05-18T00:45:46Z</time>
      </trkpt>
      <trkpt lat="50.47954" lon="3.70347">
        <ele>31</ele>
        <time>2023-05-18T00:45:57Z</time>
      </trkpt>
      <trkpt lat="50.47978" lon="3.703">
        <ele>30</ele>
        <time>2023-05-18T00:46:06Z</time>
      </trkpt>
      <trkpt lat="50.47984" lon="3.70313">
        <ele>30</ele>
        <time>2023-05-18T00:46:08Z</time>
      </trkpt>
      <trkpt lat="50.47995" lon="3.7031">
        <ele>29</ele>
        <time>2023-05-18T00:46:11Z</time>
      </trkpt>
      <trkpt lat="50.4802" lon="3.70292">
        <ele>29</ele>
        <time>2023-05-18T00:46:17Z</time>
      </trkpt>
      <trkpt lat="50.4811" lon="3.70341">
        <ele>29</ele>
        <time>2023-05-18T00:46:39Z</time>
      </trkpt>
      <trkpt lat="50.48197" lon="3.70439">
        <ele>31</ele>
        <time>2023-05-18T00:47:04Z</time>
      </trkpt>
      <trkpt lat="50.48272" lon="3.70526">
        <ele>33</ele>
        <time>2023-05-18T00:47:26Z</time>
      </trkpt>
      <trkpt lat="50.48316" lon="3.70577">
        <ele>33</ele>
        <time>2023-05-18T00:47:39Z</time>
      </trkpt>
      <trkpt lat="50.48339" lon="3.70605">
        <ele>35</ele>
        <time>2023-05-18T00:47:46Z</time>
      </trkpt>
      <trkpt lat="50.48381" lon="3.705">
        <ele>35</ele>
        <time>2023-05-18T00:48:04Z</time>
      </trkpt>
      <trkpt lat="50.48414" lon="3.70413">
        <ele>36</ele>
        <time>2023-05-18T00:48:19Z</time>
      </trkpt>
      <trkpt lat="50.48433" lon="3.70363">
        <ele>37</ele>
        <time>2023-05-18T00:48:28Z</time>
      </trkpt>
      <trkpt lat="50.48461" lon="3.70288">
        <ele>37</ele>
        <time>2023-05-18T00:48:41Z</time>
      </trkpt>
      <trkpt lat="50.48484" lon="3.70238">
        <ele>37</ele>
        <time>2023-05-18T00:48:50Z</time>
      </trkpt>
      <trkpt lat="50.48522" lon="3.70117">
        <ele>39</ele>
        <time>2023-05-18T00:49:10Z</time>
      </trkpt>
      <trkpt lat="50.48519" lon="3.70093">
        <ele>40</ele>
        <time>2023-05-18T00:49:14Z</time>
      </trkpt>
      <trkpt lat="50.48526" lon="3.70067">
        <ele>40</ele>
        <time>2023-05-18T00:49:18Z</time>
      </trkpt>
      <trkpt lat="50.48611" lon="3.70138">
        <ele>40</ele>
        <time>2023-05-18T00:49:40Z</time>
      </trkpt>
      <trkpt lat="50.48659" lon="3.70182">
        <ele>42</ele>
        <time>2023-05-18T00:49:53Z</time>
      </trkpt>
      <trkpt lat="50.48711" lon="3.70222">
        <ele>43</ele>
        <time>2023-05-18T00:50:07Z</time>
      </trkpt>
      <trkpt lat="50.48744" lon="3.70242">
        <ele>44</ele>
        <time>2023-05-18T00:50:15Z</time>
      </trkpt>
      <trkpt lat="50.48776" lon="3.70264">
        <ele>46</ele>
        <time>2023-05-18T00:50:23Z</time>
      </trkpt>
      <trkpt lat="50.48808" lon="3.70286">
        <ele>48</ele>
        <time>2023-05-18T00:50:31Z</time>
      </trkpt>
      <trkpt lat="50.48855" lon="3.70317">
        <ele>50</ele>
        <time>2023-05-18T00:50:43Z</time>
      </trkpt>
      <trkpt lat="50.48896" lon="3.70341">
        <ele>50</ele>
        <time>2023-05-18T00:50:54Z</time>
      </trkpt>
      <trkpt lat="50.48933" lon="3.70356">
        <ele>52</ele>
        <time>2023-05-18T00:51:02Z</time>
      </trkpt>
      <trkpt lat="50.48956" lon="3.7037">
        <ele>54</ele>
        <time>2023-05-18T00:51:08Z</time>
      </trkpt>
      <trkpt lat="50.4903" lon="3.7042">
        <ele>59</ele>
        <time>2023-05-18T00:51:27Z</time>
      </trkpt>
      <trkpt lat="50.49059" lon="3.70444">
        <ele>60</ele>
        <time>2023-05-18T00:51:35Z</time>
      </trkpt>
      <trkpt lat="50.4912" lon="3.70491">
        <ele>60</ele>
        <time>2023-05-18T00:51:51Z</time>
      </trkpt>
      <trkpt lat="50.49147" lon="3.70513">
        <ele>61</ele>
        <time>2023-05-18T00:51:58Z</time>
      </trkpt>
      <trkpt lat="50.49159" lon="3.70523">
        <ele>62</ele>
        <time>2023-05-18T00:52:01Z</time>
      </trkpt>
      <trkpt lat="50.49163" lon="3.70592">
        <ele>63</ele>
        <time>2023-05-18T00:52:11Z</time>
      </trkpt>
      <trkpt lat="50.49171" lon="3.70723">
        <ele>62</ele>
        <time>2023-05-18T00:52:31Z</time>
      </trkpt>
      <trkpt lat="50.49178" lon="3.70842">
        <ele>58</ele>
        <time>2023-05-18T00:52:48Z</time>
      </trkpt>
      <trkpt lat="50.49215" lon="3.70902">
        <ele>59</ele>
        <time>2023-05-18T00:53:01Z</time>
      </trkpt>
      <trkpt lat="50.49225" lon="3.70912">
        <ele>59</ele>
        <time>2023-05-18T00:53:04Z</time>
      </trkpt>
      <trkpt lat="50.49241" lon="3.7097">
        <ele>56</ele>
        <time>2023-05-18T00:53:13Z</time>
      </trkpt>
      <trkpt lat="50.49266" lon="3.7099">
        <ele>56</ele>
        <time>2023-05-18T00:53:20Z</time>
      </trkpt>
      <trkpt lat="50.49301" lon="3.71001">
        <ele>58</ele>
        <time>2023-05-18T00:53:28Z</time>
      </trkpt>
      <trkpt lat="50.4932" lon="3.71011">
        <ele>60</ele>
        <time>2023-05-18T00:53:33Z</time>
      </trkpt>
      <trkpt lat="50.49345" lon="3.71011">
        <ele>62</ele>
        <time>2023-05-18T00:53:38Z</time>
      </trkpt>
      <trkpt lat="50.49383" lon="3.70984">
        <ele>64</ele>
        <time>2023-05-18T00:53:48Z</time>
      </trkpt>
      <trkpt lat="50.49413" lon="3.70951">
        <ele>66</ele>
        <time>2023-05-18T00:53:57Z</time>
      </trkpt>
      <trkpt lat="50.49472" lon="3.70851">
        <ele>65</ele>
        <time>2023-05-18T00:54:17Z</time>
      </trkpt>
      <trkpt lat="50.49504" lon="3.70795">
        <ele>66</ele>
        <time>2023-05-18T00:54:28Z</time>
      </trkpt>
      <trkpt lat="50.49671" lon="3.70894">
        <ele>69</ele>
        <time>2023-05-18T00:55:10Z</time>
      </trkpt>
      <trkpt lat="50.49718" lon="3.70928">
        <ele>69</ele>
        <time>2023-05-18T00:55:22Z</time>
      </trkpt>
      <trkpt lat="50.498" lon="3.7101">
        <ele>69</ele>
        <time>2023-05-18T00:55:45Z</time>
      </trkpt>
      <trkpt lat="50.49744" lon="3.71134">
        <ele>69</ele>
        <time>2023-05-18T00:56:07Z</time>
      </trkpt>
      <trkpt lat="50.49696" lon="3.7124">
        <ele>67</ele>
        <time>2023-05-18T00:56:27Z</time>
      </trkpt>
      <trkpt lat="50.49684" lon="3.71266">
        <ele>66</ele>
        <time>2023-05-18T00:56:31Z</time>
      </trkpt>
      <trkpt lat="50.49673" lon="3.71259">
        <ele>66</ele>
        <time>2023-05-18T00:56:34Z</time>
      </trkpt>
      <trkpt lat="50.49681" lon="3.7127">
        <ele>66</ele>
        <time>2023-05-18T00:56:37Z</time>
      </trkpt>
      <trkpt lat="50.4967" lon="3.71294">
        <ele>66</ele>
        <time>2023-05-18T00:56:41Z</time>
      </trkpt>
      <trkpt lat="50.49598" lon="3.7145">
        <ele>68</ele>
        <time>2023-05-18T00:57:10Z</time>
      </trkpt>
      <trkpt lat="50.49573" lon="3.71505">
        <ele>70</ele>
        <time>2023-05-18T00:57:20Z</time>
      </trkpt>
      <trkpt lat="50.49559" lon="3.71537">
        <ele>72</ele>
        <time>2023-05-18T00:57:25Z</time>
      </trkpt>
      <trkpt lat="50.49542" lon="3.71467">
        <ele>70</ele>
        <time>2023-05-18T00:57:37Z</time>
      </trkpt>
      <trkpt lat="50.49515" lon="3.71367">
        <ele>72</ele>
        <time>2023-05-18T00:57:53Z</time>
      </trkpt>
      <trkpt lat="50.49483" lon="3.7123">
        <ele>72</ele>
        <time>2023-05-18T00:58:14Z</time>
      </trkpt>
      <trkpt lat="50.49475" lon="3.71238">
        <ele>72</ele>
        <time>2023-05-18T00:58:17Z</time>
      </trkpt>
      <trkpt lat="50.4945" lon="3.71286">
        <ele>74</ele>
        <time>2023-05-18T00:58:26Z</time>
      </trkpt>
      <trkpt lat="50.49441" lon="3.71364">
        <ele>75</ele>
        <time>2023-05-18T00:58:38Z</time>
      </trkpt>
      <trkpt lat="50.49433" lon="3.71486">
        <ele>75</ele>
        <time>2023-05-18T00:58:56Z</time>
      </trkpt>
      <trkpt lat="50.49431" lon="3.71522">
        <ele>75</ele>
        <time>2023-05-18T00:59:01Z</time>
      </trkpt>
      <trkpt lat="50.49427" lon="3.71571">
        <ele>75</ele>
        <time>2023-05-18T00:59:08Z</time>
      </trkpt>
      <trkpt lat="50.49416" lon="3.71598">
        <ele>75</ele>
        <time>2023-05-18T00:59:13Z</time>
      </trkpt>
      <trkpt lat="50.49418" lon="3.71579">
        <ele>75</ele>
        <time>2023-05-18T00:59:16Z</time>
      </trkpt>
      <trkpt lat="50.4942" lon="3.71558">
        <ele>75</ele>
        <time>2023-05-18T00:59:19Z</time>
      </trkpt>
      <trkpt lat="50.49414" lon="3.71534">
        <ele>76</ele>
        <time>2023-05-18T00:59:23Z</time>
      </trkpt>
      <trkpt lat="50.4941" lon="3.71518">
        <ele>76</ele>
        <time>2023-05-18T00:59:26Z</time>
      </trkpt>
      <trkpt lat="50.49378" lon="3.71491">
        <ele>75</ele>
        <time>2023-05-18T00:59:34Z</time>
      </trkpt>
      <trkpt lat="50.49349" lon="3.7148">
        <ele>73</ele>
        <time>2023-05-18T00:59:41Z</time>
      </trkpt>
      <trkpt lat="50.49302" lon="3.71473">
        <ele>71</ele>
        <time>2023-05-18T00:59:52Z</time>
      </trkpt>
      <trkpt lat="50.49269" lon="3.71462">
        <ele>69</ele>
        <time>2023-05-18T01:00:00Z</time>
      </trkpt>
      <trkpt lat="50.49236" lon="3.7144">
        <ele>67</ele>
        <time>2023-05-18T01:00:08Z</time>
      </trkpt>
      <trkpt lat="50.49224" lon="3.71413">
        <ele>65</ele>
        <time>2023-05-18T01:00:13Z</time>
      </trkpt>
      <trkpt lat="50.49212" lon="3.71393">
        <ele>63</ele>
        <time>2023-05-18T01:00:17Z</time>
      </trkpt>
      <trkpt lat="50.49216" lon="3.71467">
        <ele>67</ele>
        <time>2023-05-18T01:00:28Z</time>
      </trkpt>
      <trkpt lat="50.4922" lon="3.71549">
        <ele>71</ele>
        <time>2023-05-18T01:00:41Z</time>
      </trkpt>
      <trkpt lat="50.49202" lon="3.7158">
        <ele>71</ele>
        <time>2023-05-18T01:00:47Z</time>
      </trkpt>
      <trkpt lat="50.49191" lon="3.71622">
        <ele>73</ele>
        <time>2023-05-18T01:00:54Z</time>
      </trkpt>
      <trkpt lat="50.49184" lon="3.7174">
        <ele>78</ele>
        <time>2023-05-18T01:01:11Z</time>
      </trkpt>
      <trkpt lat="50.49185" lon="3.71879">
        <ele>78</ele>
        <time>2023-05-18T01:01:32Z</time>
      </trkpt>
      <trkpt lat="50.49097" lon="3.71876">
        <ele>68</ele>
        <time>2023-05-18T01:01:52Z</time>
      </trkpt>
      <trkpt lat="50.4907" lon="3.71875">
        <ele>67</ele>
        <time>2023-05-18T01:01:59Z</time>
      </trkpt>
      <trkpt lat="50.48991" lon="3.71874">
        <ele>68</ele>
        <time>2023-05-18T01:02:17Z</time>
      </trkpt>
      <trkpt lat="50.48946" lon="3.7187">
        <ele>69</ele>
        <time>2023-05-18T01:02:28Z</time>
      </trkpt>
      <trkpt lat="50.48859" lon="3.71869">
        <ele>67</ele>
        <time>2023-05-18T01:02:48Z</time>
      </trkpt>
      <trkpt lat="50.48797" lon="3.71867">
        <ele>68</ele>
        <time>2023-05-18T01:03:02Z</time>
      </trkpt>
      <trkpt lat="50.48678" lon="3.71862">
        <ele>67</ele>
        <time>2023-05-18T01:03:30Z</time>
      </trkpt>
      <trkpt lat="50.48681" lon="3.71885">
        <ele>66</ele>
        <time>2023-05-18T01:03:34Z</time>
      </trkpt>
      <trkpt lat="50.48687" lon="3.71903">
        <ele>65</ele>
        <time>2023-05-18T01:03:37Z</time>
      </trkpt>
      <trkpt lat="50.48689" lon="3.71933">
        <ele>64</ele>
        <time>2023-05-18T01:03:41Z</time>
      </trkpt>
      <trkpt lat="50.48699" lon="3.71983">
        <ele>62</ele>
        <time>2023-05-18T01:03:49Z</time>
      </trkpt>
      <trkpt lat="50.4872" lon="3.72095">
        <ele>62</ele>
        <time>2023-05-18T01:04:06Z</time>
      </trkpt>
      <trkpt lat="50.48733" lon="3.72154">
        <ele>65</ele>
        <time>2023-05-18T01:04:16Z</time>
      </trkpt>
      <trkpt lat="50.4875" lon="3.72241">
        <ele>64</ele>
        <time>2023-05-18T01:04:29Z</time>
      </trkpt>
      <trkpt lat="50.48774" lon="3.72367">
        <ele>62</ele>
        <time>2023-05-18T01:04:49Z</time>
      </trkpt>
      <trkpt lat="50.48786" lon="3.7242">
        <ele>61</ele>
        <time>2023-05-18T01:04:57Z</time>
      </trkpt>
      <trkpt lat="50.48815" lon="3.72571">
        <ele>66</ele>
        <time>2023-05-18T01:05:21Z</time>
      </trkpt>
      <trkpt lat="50.48882" lon="3.7271">
        <ele>65</ele>
        <time>2023-05-18T01:05:46Z</time>
      </trkpt>
      <trkpt lat="50.48967" lon="3.72884">
        <ele>69</ele>
        <time>2023-05-18T01:06:19Z</time>
      </trkpt>
      <trkpt lat="50.49112" lon="3.72907">
        <ele>75</ele>
        <time>2023-05-18T01:06:53Z</time>
      </trkpt>
      <trkpt lat="50.49203" lon="3.7292">
        <ele>73</ele>
        <time>2023-05-18T01:07:14Z</time>
      </trkpt>
      <trkpt lat="50.49301" lon="3.72935">
        <ele>74</ele>
        <time>2023-05-18T01:07:37Z</time>
      </trkpt>
      <trkpt lat="50.49459" lon="3.72959">
        <ele>75</ele>
        <time>2023-05-18T01:08:15Z</time>
      </trkpt>
      <trkpt lat="50.49538" lon="3.72971">
        <ele>75</ele>
        <time>2023-05-18T01:08:33Z</time>
      </trkpt>
      <trkpt lat="50.49663" lon="3.7299">
        <ele>76</ele>
        <time>2023-05-18T01:09:02Z</time>
      </trkpt>
      <trkpt lat="50.49774" lon="3.73005">
        <ele>78</ele>
        <time>2023-05-18T01:09:28Z</time>
      </trkpt>
      <trkpt lat="50.49835" lon="3.73014">
        <ele>78</ele>
        <time>2023-05-18T01:09:43Z</time>
      </trkpt>
      <trkpt lat="50.49923" lon="3.73029">
        <ele>82</ele>
        <time>2023-05-18T01:10:03Z</time>
      </trkpt>
      <trkpt lat="50.49934" lon="3.73009">
        <ele>82</ele>
        <time>2023-05-18T01:10:07Z</time>
      </trkpt>
      <trkpt lat="50.50003" lon="3.7291">
        <ele>79</ele>
        <time>2023-05-18T01:10:29Z</time>
      </trkpt>
      <trkpt lat="50.50047" lon="3.72847">
        <ele>78</ele>
        <time>2023-05-18T01:10:43Z</time>
      </trkpt>
      <trkpt lat="50.50103" lon="3.72771">
        <ele>85</ele>
        <time>2023-05-18T01:11:00Z</time>
      </trkpt>
      <trkpt lat="50.50158" lon="3.72693">
        <ele>88</ele>
        <time>2023-05-18T01:11:18Z</time>
      </trkpt>
      <trkpt lat="50.50191" lon="3.72647">
        <ele>88</ele>
        <time>2023-05-18T01:11:28Z</time>
      </trkpt>
      <trkpt lat="50.50236" lon="3.72585">
        <ele>87</ele>
        <time>2023-05-18T01:11:42Z</time>
      </trkpt>
      <trkpt lat="50.50211" lon="3.72509">
        <ele>87</ele>
        <time>2023-05-18T01:11:55Z</time>
      </trkpt>
      <trkpt lat="50.50192" lon="3.72454">
        <ele>87</ele>
        <time>2023-05-18T01:12:04Z</time>
      </trkpt>
      <trkpt lat="50.50164" lon="3.72319">
        <ele>86</ele>
        <time>2023-05-18T01:12:25Z</time>
      </trkpt>
      <trkpt lat="50.50223" lon="3.72395">
        <ele>85</ele>
        <time>2023-05-18T01:12:43Z</time>
      </trkpt>
      <trkpt lat="50.50264" lon="3.72419">
        <ele>84</ele>
        <time>2023-05-18T01:12:53Z</time>
      </trkpt>
      <trkpt lat="50.50369" lon="3.72459">
        <ele>75</ele>
        <time>2023-05-18T01:13:18Z</time>
      </trkpt>
      <trkpt lat="50.5033" lon="3.72408">
        <ele>76</ele>
        <time>2023-05-18T01:13:30Z</time>
      </trkpt>
      <trkpt lat="50.50243" lon="3.72318">
        <ele>79</ele>
        <time>2023-05-18T01:13:54Z</time>
      </trkpt>
      <trkpt lat="50.50201" lon="3.72224">
        <ele>79</ele>
        <time>2023-05-18T01:14:11Z</time>
      </trkpt>
      <trkpt lat="50.50201" lon="3.72194">
        <ele>78</ele>
        <time>2023-05-18T01:14:16Z</time>
      </trkpt>
      <trkpt lat="50.50214" lon="3.7218">
        <ele>75</ele>
        <time>2023-05-18T01:14:20Z</time>
      </trkpt>
      <trkpt lat="50.50256" lon="3.72161">
        <ele>70</ele>
        <time>2023-05-18T01:14:30Z</time>
      </trkpt>
      <trkpt lat="50.50306" lon="3.72135">
        <ele>67</ele>
        <time>2023-05-18T01:14:42Z</time>
      </trkpt>
      <trkpt lat="50.50319" lon="3.72111">
        <ele>67</ele>
        <time>2023-05-18T01:14:47Z</time>
      </trkpt>
      <trkpt lat="50.50276" lon="3.72026">
        <ele>70</ele>
        <time>2023-05-18T01:15:03Z</time>
      </trkpt>
      <trkpt lat="50.50242" lon="3.71955">
        <ele>72</ele>
        <time>2023-05-18T01:15:16Z</time>
      </trkpt>
      <trkpt lat="50.50196" lon="3.71863">
        <ele>76</ele>
        <time>2023-05-18T01:15:33Z</time>
      </trkpt>
      <trkpt lat="50.50174" lon="3.71854">
        <ele>78</ele>
        <time>2023-05-18T01:15:39Z</time>
      </trkpt>
      <trkpt lat="50.50146" lon="3.71852">
        <ele>80</ele>
        <time>2023-05-18T01:15:45Z</time>
      </trkpt>
      <trkpt lat="50.50146" lon="3.71831">
        <ele>81</ele>
        <time>2023-05-18T01:15:48Z</time>
      </trkpt>
      <trkpt lat="50.50134" lon="3.71814">
        <ele>82</ele>
        <time>2023-05-18T01:15:52Z</time>
      </trkpt>
      <trkpt lat="50.50133" lon="3.71695">
        <ele>81</ele>
        <time>2023-05-18T01:16:10Z</time>
      </trkpt>
      <trkpt lat="50.50117" lon="3.71686">
        <ele>81</ele>
        <time>2023-05-18T01:16:14Z</time>
      </trkpt>
      <trkpt lat="50.50076" lon="3.71687">
        <ele>82</ele>
        <time>2023-05-18T01:16:23Z</time>
      </trkpt>
      <trkpt lat="50.50031" lon="3.71689">
        <ele>83</ele>
        <time>2023-05-18T01:16:34Z</time>
      </trkpt>
      <trkpt lat="50.49993" lon="3.71691">
        <ele>82</ele>
        <time>2023-05-18T01:16:43Z</time>
      </trkpt>
      <trkpt lat="50.49986" lon="3.71693">
        <ele>82</ele>
        <time>2023-05-18T01:16:44Z</time>
      </trkpt>
      <trkpt lat="50.49973" lon="3.71735">
        <ele>83</ele>
        <time>2023-05-18T01:16:51Z</time>
      </trkpt>
      <trkpt lat="50.49966" lon="3.71743">
        <ele>83</ele>
        <time>2023-05-18T01:16:53Z</time>
      </trkpt>
      <trkpt lat="50.4993" lon="3.71731">
        <ele>82</ele>
        <time>2023-05-18T01:17:02Z</time>
      </trkpt>
      <trkpt lat="50.49922" lon="3.71726">
        <ele>82</ele>
        <time>2023-05-18T01:17:04Z</time>
      </trkpt>
      <trkpt lat="50.49896" lon="3.7175">
        <ele>82</ele>
        <time>2023-05-18T01:17:11Z</time>
      </trkpt>
      <trkpt lat="50.49913" lon="3.7181">
        <ele>81</ele>
        <time>2023-05-18T01:17:21Z</time>
      </trkpt>
      <trkpt lat="50.49917" lon="3.71853">
        <ele>81</ele>
        <time>2023-05-18T01:17:27Z</time>
      </trkpt>
      <trkpt lat="50.49919" lon="3.71889">
        <ele>82</ele>
        <time>2023-05-18T01:17:33Z</time>
      </trkpt>
      <trkpt lat="50.49909" lon="3.71911">
        <ele>83</ele>
        <time>2023-05-18T01:17:37Z</time>
      </trkpt>
      <trkpt lat="50.49902" lon="3.71945">
        <ele>84</ele>
        <time>2023-05-18T01:17:42Z</time>
      </trkpt>
      <trkpt lat="50.49882" lon="3.71985">
        <ele>84</ele>
        <time>2023-05-18T01:17:50Z</time>
      </trkpt>
      <trkpt lat="50.49876" lon="3.72036">
        <ele>84</ele>
        <time>2023-05-18T01:17:57Z</time>
      </trkpt>
      <trkpt lat="50.49881" lon="3.72057">
        <ele>84</ele>
        <time>2023-05-18T01:18:01Z</time>
      </trkpt>
      <trkpt lat="50.49895" lon="3.72071">
        <ele>84</ele>
        <time>2023-05-18T01:18:04Z</time>
      </trkpt>
      <trkpt lat="50.49902" lon="3.72094">
        <ele>83</ele>
        <time>2023-05-18T01:18:08Z</time>
      </trkpt>
      <trkpt lat="50.49914" lon="3.72104">
        <ele>83</ele>
        <time>2023-05-18T01:18:11Z</time>
      </trkpt>
      <trkpt lat="50.49948" lon="3.7213">
        <ele>83</ele>
        <time>2023-05-18T01:18:20Z</time>
      </trkpt>
      <trkpt lat="50.49964" lon="3.72153">
        <ele>82</ele>
        <time>2023-05-18T01:18:25Z</time>
      </trkpt>
      <trkpt lat="50.49986" lon="3.72193">
        <ele>83</ele>
        <time>2023-05-18T01:18:33Z</time>
      </trkpt>
      <trkpt lat="50.50009" lon="3.72198">
        <ele>83</ele>
        <time>2023-05-18T01:18:39Z</time>
      </trkpt>
      <trkpt lat="50.50027" lon="3.72224">
        <ele>84</ele>
        <time>2023-05-18T01:18:44Z</time>
      </trkpt>
      <trkpt lat="50.50067" lon="3.72323">
        <ele>86</ele>
        <time>2023-05-18T01:19:02Z</time>
      </trkpt>
      <trkpt lat="50.50069" lon="3.72336">
        <ele>86</ele>
        <time>2023-05-18T01:19:04Z</time>
      </trkpt>
      <trkpt lat="50.50064" lon="3.72354">
        <ele>85</ele>
        <time>2023-05-18T01:19:07Z</time>
      </trkpt>
      <trkpt lat="50.50071" lon="3.72413">
        <ele>83</ele>
        <time>2023-05-18T01:19:16Z</time>
      </trkpt>
      <trkpt lat="50.50077" lon="3.72434">
        <ele>84</ele>
        <time>2023-05-18T01:19:19Z</time>
      </trkpt>
      <trkpt lat="50.50068" lon="3.72452">
        <ele>84</ele>
        <time>2023-05-18T01:19:22Z</time>
      </trkpt>
      <trkpt lat="50.50047" lon="3.72471">
        <ele>83</ele>
        <time>2023-05-18T01:19:28Z</time>
      </trkpt>
      <trkpt lat="50.50041" lon="3.72478">
        <ele>82</ele>
        <time>2023-05-18T01:19:30Z</time>
      </trkpt>
      <trkpt lat="50.50038" lon="3.7247">
        <ele>82</ele>
        <time>2023-05-18T01:19:31Z</time>
      </trkpt>
      <trkpt lat="50.50026" lon="3.72458">
        <ele>81</ele>
        <time>2023-05-18T01:19:34Z</time>
      </trkpt>
      <trkpt lat="50.50024" lon="3.72448">
        <ele>81</ele>
        <time>2023-05-18T01:19:36Z</time>
      </trkpt>
      <trkpt lat="50.50016" lon="3.72431">
        <ele>80</ele>
        <time>2023-05-18T01:19:39Z</time>
      </trkpt>
      <trkpt lat="50.50017" lon="3.724">
        <ele>80</ele>
        <time>2023-05-18T01:19:44Z</time>
      </trkpt>
      <trkpt lat="50.50026" lon="3.72369">
        <ele>82</ele>
        <time>2023-05-18T01:19:49Z</time>
      </trkpt>
      <trkpt lat="50.50025" lon="3.72357">
        <ele>82</ele>
        <time>2023-05-18T01:19:51Z</time>
      </trkpt>
      <trkpt lat="50.50022" lon="3.72349">
        <ele>82</ele>
        <time>2023-05-18T01:19:52Z</time>
      </trkpt>
      <trkpt lat="50.50022" lon="3.72326">
        <ele>83</ele>
        <time>2023-05-18T01:19:55Z</time>
      </trkpt>
      <trkpt lat="50.50013" lon="3.72312">
        <ele>82</ele>
        <time>2023-05-18T01:19:58Z</time>
      </trkpt>
      <trkpt lat="50.50005" lon="3.72318">
        <ele>82</ele>
        <time>2023-05-18T01:20:00Z</time>
      </trkpt>
      <trkpt lat="50.50008" lon="3.72345">
        <ele>81</ele>
        <time>2023-05-18T01:20:05Z</time>
      </trkpt>
      <trkpt lat="50.49988" lon="3.7238">
        <ele>79</ele>
        <time>2023-05-18T01:20:12Z</time>
      </trkpt>
      <trkpt lat="50.49981" lon="3.72416">
        <ele>79</ele>
        <time>2023-05-18T01:20:17Z</time>
      </trkpt>
      <trkpt lat="50.49987" lon="3.72448">
        <ele>79</ele>
        <time>2023-05-18T01:20:22Z</time>
      </trkpt>
      <trkpt lat="50.50005" lon="3.72468">
        <ele>79</ele>
        <time>2023-05-18T01:20:27Z</time>
      </trkpt>
      <trkpt lat="50.50003" lon="3.72511">
        <ele>79</ele>
        <time>2023-05-18T01:20:34Z</time>
      </trkpt>
      <trkpt lat="50.5002" lon="3.72538">
        <ele>81</ele>
        <time>2023-05-18T01:20:39Z</time>
      </trkpt>
      <trkpt lat="50.50057" lon="3.72599">
        <ele>83</ele>
        <time>2023-05-18T01:20:52Z</time>
      </trkpt>
      <trkpt lat="50.50027" lon="3.72642">
        <ele>81</ele>
        <time>2023-05-18T01:21:01Z</time>
      </trkpt>
      <trkpt lat="50.50013" lon="3.72669">
        <ele>79</ele>
        <time>2023-05-18T01:21:06Z</time>
      </trkpt>
      <trkpt lat="50.50008" lon="3.72707">
        <ele>78</ele>
        <time>2023-05-18T01:21:12Z</time>
      </trkpt>
      <trkpt lat="50.49995" lon="3.72734">
        <ele>76</ele>
        <time>2023-05-18T01:21:17Z</time>
      </trkpt>
      <trkpt lat="50.49996" lon="3.72753">
        <ele>76</ele>
        <time>2023-05-18T01:21:20Z</time>
      </trkpt>
      <trkpt lat="50.49982" lon="3.72727">
        <ele>76</ele>
        <time>2023-05-18T01:21:25Z</time>
      </trkpt>
      <trkpt lat="50.4992" lon="3.72619">
        <ele>75</ele>
        <time>2023-05-18T01:21:47Z</time>
      </trkpt>
      <trkpt lat="50.49845" lon="3.72489">
        <ele>71</ele>
        <time>2023-05-18T01:22:13Z</time>
      </trkpt>
      <trkpt lat="50.49834" lon="3.72422">
        <ele>72</ele>
        <time>2023-05-18T01:22:23Z</time>
      </trkpt>
      <trkpt lat="50.49871" lon="3.72399">
        <ele>74</ele>
        <time>2023-05-18T01:22:32Z</time>
      </trkpt>
      <trkpt lat="50.49898" lon="3.72334">
        <ele>76</ele>
        <time>2023-05-18T01:22:44Z</time>
      </trkpt>
      <trkpt lat="50.49885" lon="3.72329">
        <ele>76</ele>
        <time>2023-05-18T01:22:47Z</time>
      </trkpt>
      <trkpt lat="50.49876" lon="3.72314">
        <ele>76</ele>
        <time>2023-05-18T01:22:50Z</time>
      </trkpt>
      <trkpt lat="50.49867" lon="3.72283">
        <ele>76</ele>
        <time>2023-05-18T01:22:55Z</time>
      </trkpt>
      <trkpt lat="50.49857" lon="3.72271">
        <ele>76</ele>
        <time>2023-05-18T01:22:58Z</time>
      </trkpt>
      <trkpt lat="50.49837" lon="3.72249">
        <ele>76</ele>
        <time>2023-05-18T01:23:04Z</time>
      </trkpt>
      <trkpt lat="50.49845" lon="3.72225">
        <ele>77</ele>
        <time>2023-05-18T01:23:08Z</time>
      </trkpt>
      <trkpt lat="50.49848" lon="3.7221">
        <ele>78</ele>
        <time>2023-05-18T01:23:10Z</time>
      </trkpt>
      <trkpt lat="50.49844" lon="3.72174">
        <ele>79</ele>
        <time>2023-05-18T01:23:16Z</time>
      </trkpt>
      <trkpt lat="50.4983" lon="3.72153">
        <ele>79</ele>
        <time>2023-05-18T01:23:20Z</time>
      </trkpt>
      <trkpt lat="50.49806" lon="3.72152">
        <ele>77</ele>
        <time>2023-05-18T01:23:26Z</time>
      </trkpt>
      <trkpt lat="50.49789" lon="3.72145">
        <ele>76</ele>
        <time>2023-05-18T01:23:30Z</time>
      </trkpt>
      <trkpt lat="50.49785" lon="3.7213">
        <ele>76</ele>
        <time>2023-05-18T01:23:32Z</time>
      </trkpt>
      <trkpt lat="50.4979" lon="3.7211">
        <ele>77</ele>
        <time>2023-05-18T01:23:35Z</time>
      </trkpt>
      <trkpt lat="50.49784" lon="3.72074">
        <ele>77</ele>
        <time>2023-05-18T01:23:41Z</time>
      </trkpt>
      <trkpt lat="50.4978" lon="3.72052">
        <ele>78</ele>
        <time>2023-05-18T01:23:44Z</time>
      </trkpt>
      <trkpt lat="50.49761" lon="3.72013">
        <ele>77</ele>
        <time>2023-05-18T01:23:52Z</time>
      </trkpt>
      <trkpt lat="50.49761" lon="3.71993">
        <ele>79</ele>
        <time>2023-05-18T01:23:55Z</time>
      </trkpt>
      <trkpt lat="50.49763" lon="3.71982">
        <ele>79</ele>
        <time>2023-05-18T01:23:56Z</time>
      </trkpt>
      <trkpt lat="50.49751" lon="3.71957">
        <ele>81</ele>
        <time>2023-05-18T01:24:01Z</time>
      </trkpt>
      <trkpt lat="50.49751" lon="3.71948">
        <ele>81</ele>
        <time>2023-05-18T01:24:02Z</time>
      </trkpt>
      <trkpt lat="50.49723" lon="3.71912">
        <ele>83</ele>
        <time>2023-05-18T01:24:11Z</time>
      </trkpt>
      <trkpt lat="50.49714" lon="3.719">
        <ele>83</ele>
        <time>2023-05-18T01:24:14Z</time>
      </trkpt>
      <trkpt lat="50.49694" lon="3.71887">
        <ele>82</ele>
        <time>2023-05-18T01:24:19Z</time>
      </trkpt>
      <trkpt lat="50.49679" lon="3.71882">
        <ele>81</ele>
        <time>2023-05-18T01:24:22Z</time>
      </trkpt>
      <trkpt lat="50.49672" lon="3.71883">
        <ele>81</ele>
        <time>2023-05-18T01:24:24Z</time>
      </trkpt>
      <trkpt lat="50.49662" lon="3.71895">
        <ele>80</ele>
        <time>2023-05-18T01:24:27Z</time>
      </trkpt>
      <trkpt lat="50.49658" lon="3.71912">
        <ele>79</ele>
        <time>2023-05-18T01:24:29Z</time>
      </trkpt>
      <trkpt lat="50.4965" lon="3.71921">
        <ele>78</ele>
        <time>2023-05-18T01:24:32Z</time>
      </trkpt>
      <trkpt lat="50.49637" lon="3.71921">
        <ele>78</ele>
        <time>2023-05-18T01:24:35Z</time>
      </trkpt>
      <trkpt lat="50.49632" lon="3.71912">
        <ele>78</ele>
        <time>2023-05-18T01:24:37Z</time>
      </trkpt>
      <trkpt lat="50.49653" lon="3.71874">
        <ele>80</ele>
        <time>2023-05-18T01:24:44Z</time>
      </trkpt>
      <trkpt lat="50.4969" lon="3.71818">
        <ele>82</ele>
        <time>2023-05-18T01:24:56Z</time>
      </trkpt>
      <trkpt lat="50.49715" lon="3.71811">
        <ele>83</ele>
        <time>2023-05-18T01:25:02Z</time>
      </trkpt>
      <trkpt lat="50.4973" lon="3.71798">
        <ele>83</ele>
        <time>2023-05-18T01:25:06Z</time>
      </trkpt>
      <trkpt lat="50.4975" lon="3.71785">
        <ele>84</ele>
        <time>2023-05-18T01:25:11Z</time>
      </trkpt>
      <trkpt lat="50.4976" lon="3.71778">
        <ele>83</ele>
        <time>2023-05-18T01:25:14Z</time>
      </trkpt>
      <trkpt lat="50.4978" lon="3.71753">
        <ele>82</ele>
        <time>2023-05-18T01:25:20Z</time>
      </trkpt>
      <trkpt lat="50.49806" lon="3.71747">
        <ele>81</ele>
        <time>2023-05-18T01:25:26Z</time>
      </trkpt>
      <trkpt lat="50.49824" lon="3.71707">
        <ele>78</ele>
        <time>2023-05-18T01:25:33Z</time>
      </trkpt>
      <trkpt lat="50.49831" lon="3.71626">
        <ele>76</ele>
        <time>2023-05-18T01:25:45Z</time>
      </trkpt>
      <trkpt lat="50.49842" lon="3.71596">
        <ele>77</ele>
        <time>2023-05-18T01:25:50Z</time>
      </trkpt>
      <trkpt lat="50.49865" lon="3.71585">
        <ele>78</ele>
        <time>2023-05-18T01:25:56Z</time>
      </trkpt>
      <trkpt lat="50.49921" lon="3.71561">
        <ele>79</ele>
        <time>2023-05-18T01:26:09Z</time>
      </trkpt>
      <trkpt lat="50.49963" lon="3.71542">
        <ele>77</ele>
        <time>2023-05-18T01:26:20Z</time>
      </trkpt>
      <trkpt lat="50.50039" lon="3.71505">
        <ele>71</ele>
        <time>2023-05-18T01:26:38Z</time>
      </trkpt>
      <trkpt lat="50.50049" lon="3.71488">
        <ele>70</ele>
        <time>2023-05-18T01:26:42Z</time>
      </trkpt>
      <trkpt lat="50.50077" lon="3.71481">
        <ele>70</ele>
        <time>2023-05-18T01:26:48Z</time>
      </trkpt>
      <trkpt lat="50.50107" lon="3.71471">
        <ele>68</ele>
        <time>2023-05-18T01:26:55Z</time>
      </trkpt>
      <trkpt lat="50.50142" lon="3.71473">
        <ele>66</ele>
        <time>2023-05-18T01:27:04Z</time>
      </trkpt>
      <trkpt lat="50.50201" lon="3.71483">
        <ele>64</ele>
        <time>2023-05-18T01:27:17Z</time>
      </trkpt>
      <trkpt lat="50.50199" lon="3.71436">
        <ele>63</ele>
        <time>2023-05-18T01:27:24Z</time>
      </trkpt>
      <trkpt lat="50.50199" lon="3.71329">
        <ele>60</ele>
        <time>2023-05-18T01:27:40Z</time>
      </trkpt>
      <trkpt lat="50.50199" lon="3.71252">
        <ele>59</ele>
        <time>2023-05-18T01:27:52Z</time>
      </trkpt>
      <trkpt lat="50.50199" lon="3.71184">
        <ele>60</ele>
        <time>2023-05-18T01:28:02Z</time>
      </trkpt>
      <trkpt lat="50.502" lon="3.71152">
        <ele>61</ele>
        <time>2023-05-18T01:28:07Z</time>
      </trkpt>
      <trkpt lat="50.50214" lon="3.71035">
        <ele>60</ele>
        <time>2023-05-18T01:28:24Z</time>
      </trkpt>
      <trkpt lat="50.50219" lon="3.7096">
        <ele>59</ele>
        <time>2023-05-18T01:28:36Z</time>
      </trkpt>
      <trkpt lat="50.50218" lon="3.70882">
        <ele>59</ele>
        <time>2023-05-18T01:28:47Z</time>
      </trkpt>
      <trkpt lat="50.50211" lon="3.70796">
        <ele>59</ele>
        <time>2023-05-18T01:29:00Z</time>
      </trkpt>
      <trkpt lat="50.50204" lon="3.70719">
        <ele>59</ele>
        <time>2023-05-18T01:29:12Z</time>
      </trkpt>
      <trkpt lat="50.50199" lon="3.70665">
        <ele>59</ele>
        <time>2023-05-18T01:29:20Z</time>
      </trkpt>
      <trkpt lat="50.50195" lon="3.70581">
        <ele>58</ele>
        <time>2023-05-18T01:29:32Z</time>
      </trkpt>
      <trkpt lat="50.50193" lon="3.70574">
        <ele>58</ele>
        <time>2023-05-18T01:29:33Z</time>
      </trkpt>
      <trkpt lat="50.50182" lon="3.70433">
        <ele>56</ele>
        <time>2023-05-18T01:29:54Z</time>
      </trkpt>
      <trkpt lat="50.50231" lon="3.70422">
        <ele>55</ele>
        <time>2023-05-18T01:30:06Z</time>
      </trkpt>
      <trkpt lat="50.50275" lon="3.70365">
        <ele>54</ele>
        <time>2023-05-18T01:30:19Z</time>
      </trkpt>
      <trkpt lat="50.50273" lon="3.70309">
        <ele>54</ele>
        <time>2023-05-18T01:30:28Z</time>
      </trkpt>
      <trkpt lat="50.50259" lon="3.70286">
        <ele>54</ele>
        <time>2023-05-18T01:30:32Z</time>
      </trkpt>
      <trkpt lat="50.50257" lon="3.70247">
        <ele>55</ele>
        <time>2023-05-18T01:30:38Z</time>
      </trkpt>
      <trkpt lat="50.50266" lon="3.70212">
        <ele>54</ele>
        <time>2023-05-18T01:30:44Z</time>
      </trkpt>
      <trkpt lat="50.50259" lon="3.70087">
        <ele>56</ele>
        <time>2023-05-18T01:31:02Z</time>
      </trkpt>
      <trkpt lat="50.50252" lon="3.70035">
        <ele>57</ele>
        <time>2023-05-18T01:31:10Z</time>
      </trkpt>
      <trkpt lat="50.5025" lon="3.69984">
        <ele>56</ele>
        <time>2023-05-18T01:31:18Z</time>
      </trkpt>
      <trkpt lat="50.50246" lon="3.69916">
        <ele>53</ele>
        <time>2023-05-18T01:31:28Z</time>
      </trkpt>
      <trkpt lat="50.50225" lon="3.69924">
        <ele>53</ele>
        <time>2023-05-18T01:31:33Z</time>
      </trkpt>
      <trkpt lat="50.50211" lon="3.69923">
        <ele>53</ele>
        <time>2023-05-18T01:31:36Z</time>
      </trkpt>
      <trkpt lat="50.50182" lon="3.69927">
        <ele>52</ele>
        <time>2023-05-18T01:31:43Z</time>
      </trkpt>
      <trkpt lat="50.50108" lon="3.69944">
        <ele>56</ele>
        <time>2023-05-18T01:32:01Z</time>
      </trkpt>
      <trkpt lat="50.50032" lon="3.69962">
        <ele>59</ele>
        <time>2023-05-18T01:32:19Z</time>
      </trkpt>
      <trkpt lat="50.4996" lon="3.69979">
        <ele>62</ele>
        <time>2023-05-18T01:32:36Z</time>
      </trkpt>
      <trkpt lat="50.49893" lon="3.70002">
        <ele>68</ele>
        <time>2023-05-18T01:32:52Z</time>
      </trkpt>
      <trkpt lat="50.49783" lon="3.7004">
        <ele>75</ele>
        <time>2023-05-18T01:33:18Z</time>
      </trkpt>
      <trkpt lat="50.49739" lon="3.70066">
        <ele>76</ele>
        <time>2023-05-18T01:33:29Z</time>
      </trkpt>
      <trkpt lat="50.49708" lon="3.7009">
        <ele>75</ele>
        <time>2023-05-18T01:33:37Z</time>
      </trkpt>
      <trkpt lat="50.49682" lon="3.70027">
        <ele>77</ele>
        <time>2023-05-18T01:33:48Z</time>
      </trkpt>
      <trkpt lat="50.49628" lon="3.7003">
        <ele>78</ele>
        <time>2023-05-18T01:34:01Z</time>
      </trkpt>
      <trkpt lat="50.49457" lon="3.70067">
        <ele>81</ele>
        <time>2023-05-18T01:34:41Z</time>
      </trkpt>
      <trkpt lat="50.49444" lon="3.70041">
        <ele>82</ele>
        <time>2023-05-18T01:34:46Z</time>
      </trkpt>
      <trkpt lat="50.49441" lon="3.70019">
        <ele>83</ele>
        <time>2023-05-18T01:34:49Z</time>
      </trkpt>
      <trkpt lat="50.49443" lon="3.6997">
        <ele>84</ele>
        <time>2023-05-18T01:34:57Z</time>
      </trkpt>
      <trkpt lat="50.49448" lon="3.69933">
        <ele>84</ele>
        <time>2023-05-18T01:35:02Z</time>
      </trkpt>
      <trkpt lat="50.49439" lon="3.69876">
        <ele>84</ele>
        <time>2023-05-18T01:35:11Z</time>
      </trkpt>
      <trkpt lat="50.49431" lon="3.6986">
        <ele>83</ele>
        <time>2023-05-18T01:35:14Z</time>
      </trkpt>
      <trkpt lat="50.49431" lon="3.69743">
        <ele>82</ele>
        <time>2023-05-18T01:35:31Z</time>
      </trkpt>
      <trkpt lat="50.49427" lon="3.69715">
        <ele>82</ele>
        <time>2023-05-18T01:35:36Z</time>
      </trkpt>
      <trkpt lat="50.49364" lon="3.69644">
        <ele>79</ele>
        <time>2023-05-18T01:35:54Z</time>
      </trkpt>
      <trkpt lat="50.49348" lon="3.69627">
        <ele>78</ele>
        <time>2023-05-18T01:35:58Z</time>
      </trkpt>
      <trkpt lat="50.49329" lon="3.69478">
        <ele>78</ele>
        <time>2023-05-18T01:36:21Z</time>
      </trkpt>
      <trkpt lat="50.496" lon="3.69457">
        <ele>70</ele>
        <time>2023-05-18T01:37:24Z</time>
      </trkpt>
      <trkpt lat="50.49763" lon="3.69448">
        <ele>65</ele>
        <time>2023-05-18T01:38:02Z</time>
      </trkpt>
      <trkpt lat="50.49923" lon="3.69431">
        <ele>57</ele>
        <time>2023-05-18T01:38:40Z</time>
      </trkpt>
      <trkpt lat="50.50088" lon="3.69409">
        <ele>54</ele>
        <time>2023-05-18T01:39:18Z</time>
      </trkpt>
      <trkpt lat="50.50193" lon="3.69401">
        <ele>54</ele>
        <time>2023-05-18T01:39:43Z</time>
      </trkpt>
      <trkpt lat="50.50208" lon="3.69399">
        <ele>53</ele>
        <time>2023-05-18T01:39:46Z</time>
      </trkpt>
      <trkpt lat="50.50197" lon="3.69375">
        <ele>54</ele>
        <time>2023-05-18T01:39:51Z</time>
      </trkpt>
      <trkpt lat="50.50213" lon="3.69301">
        <ele>52</ele>
        <time>2023-05-18T01:40:02Z</time>
      </trkpt>
      <trkpt lat="50.50199" lon="3.69018">
        <ele>50</ele>
        <time>2023-05-18T01:40:45Z</time>
      </trkpt>
      <trkpt lat="50.50204" lon="3.69001">
        <ele>49</ele>
        <time>2023-05-18T01:40:47Z</time>
      </trkpt>
      <trkpt lat="50.50189" lon="3.68851">
        <ele>50</ele>
        <time>2023-05-18T01:41:10Z</time>
      </trkpt>
      <trkpt lat="50.50183" lon="3.68734">
        <ele>49</ele>
        <time>2023-05-18T01:41:27Z</time>
      </trkpt>
      <trkpt lat="50.50172" lon="3.68551">
        <ele>47</ele>
        <time>2023-05-18T01:41:55Z</time>
      </trkpt>
      <trkpt lat="50.50158" lon="3.68319">
        <ele>46</ele>
        <time>2023-05-18T01:42:29Z</time>
      </trkpt>
      <trkpt lat="50.5015" lon="3.68225">
        <ele>49</ele>
        <time>2023-05-18T01:42:43Z</time>
      </trkpt>
      <trkpt lat="50.5015" lon="3.68188">
        <ele>49</ele>
        <time>2023-05-18T01:42:49Z</time>
      </trkpt>
      <trkpt lat="50.50149" lon="3.68125">
        <ele>48</ele>
        <time>2023-05-18T01:42:58Z</time>
      </trkpt>
      <trkpt lat="50.50149" lon="3.6802">
        <ele>47</ele>
        <time>2023-05-18T01:43:14Z</time>
      </trkpt>
      <trkpt lat="50.5015" lon="3.67979">
        <ele>47</ele>
        <time>2023-05-18T01:43:20Z</time>
      </trkpt>
      <trkpt lat="50.50149" lon="3.6788">
        <ele>44</ele>
        <time>2023-05-18T01:43:35Z</time>
      </trkpt>
      <trkpt lat="50.50135" lon="3.67857">
        <ele>44</ele>
        <time>2023-05-18T01:43:39Z</time>
      </trkpt>
      <trkpt lat="50.5014" lon="3.67783">
        <ele>42</ele>
        <time>2023-05-18T01:43:50Z</time>
      </trkpt>
      <trkpt lat="50.50105" lon="3.67703">
        <ele>44</ele>
        <time>2023-05-18T01:44:05Z</time>
      </trkpt>
      <trkpt lat="50.5005" lon="3.67654">
        <ele>46</ele>
        <time>2023-05-18T01:44:20Z</time>
      </trkpt>
      <trkpt lat="50.49986" lon="3.67527">
        <ele>43</ele>
        <time>2023-05-18T01:44:44Z</time>
      </trkpt>
      <trkpt lat="50.4996" lon="3.67483">
        <ele>41</ele>
        <time>2023-05-18T01:44:53Z</time>
      </trkpt>
      <trkpt lat="50.49918" lon="3.67539">
        <ele>42</ele>
        <time>2023-05-18T01:45:05Z</time>
      </trkpt>
      <trkpt lat="50.49857" lon="3.67575">
        <ele>44</ele>
        <time>2023-05-18T01:45:21Z</time>
      </trkpt>
      <trkpt lat="50.4974" lon="3.67548">
        <ele>48</ele>
        <time>2023-05-18T01:45:48Z</time>
      </trkpt>
      <trkpt lat="50.49687" lon="3.6754">
        <ele>48</ele>
        <time>2023-05-18T01:46:01Z</time>
      </trkpt>
      <trkpt lat="50.4965" lon="3.67522">
        <ele>49</ele>
        <time>2023-05-18T01:46:10Z</time>
      </trkpt>
      <trkpt lat="50.49656" lon="3.67468">
        <ele>48</ele>
        <time>2023-05-18T01:46:18Z</time>
      </trkpt>
      <trkpt lat="50.49668" lon="3.67421">
        <ele>48</ele>
        <time>2023-05-18T01:46:25Z</time>
      </trkpt>
      <trkpt lat="50.49666" lon="3.67393">
        <ele>47</ele>
        <time>2023-05-18T01:46:30Z</time>
      </trkpt>
      <trkpt lat="50.49641" lon="3.67278">
        <ele>46</ele>
        <time>2023-05-18T01:46:48Z</time>
      </trkpt>
      <trkpt lat="50.49636" lon="3.67248">
        <ele>46</ele>
        <time>2023-05-18T01:46:52Z</time>
      </trkpt>
      <trkpt lat="50.49641" lon="3.67229">
        <ele>46</ele>
        <time>2023-05-18T01:46:55Z</time>
      </trkpt>
      <trkpt lat="50.49636" lon="3.67229">
        <ele>46</ele>
        <time>2023-05-18T01:46:56Z</time>
      </trkpt>
      <trkpt lat="50.49634" lon="3.67227">
        <ele>46</ele>
        <time>2023-05-18T01:46:57Z</time>
      </trkpt>
      <trkpt lat="50.49625" lon="3.67181">
        <ele>46</ele>
        <time>2023-05-18T01:47:04Z</time>
      </trkpt>
      <trkpt lat="50.49574" lon="3.67117">
        <ele>47</ele>
        <time>2023-05-18T01:47:19Z</time>
      </trkpt>
      <trkpt lat="50.49528" lon="3.67059">
        <ele>49</ele>
        <time>2023-05-18T01:47:33Z</time>
      </trkpt>
      <trkpt lat="50.49482" lon="3.67065">
        <ele>51</ele>
        <time>2023-05-18T01:47:44Z</time>
      </trkpt>
      <trkpt lat="50.49473" lon="3.67028">
        <ele>51</ele>
        <time>2023-05-18T01:47:50Z</time>
      </trkpt>
      <trkpt lat="50.49457" lon="3.66954">
        <ele>52</ele>
        <time>2023-05-18T01:48:01Z</time>
      </trkpt>
      <trkpt lat="50.49441" lon="3.66918">
        <ele>53</ele>
        <time>2023-05-18T01:48:08Z</time>
      </trkpt>
      <trkpt lat="50.49411" lon="3.66851">
        <ele>54</ele>
        <time>2023-05-18T01:48:20Z</time>
      </trkpt>
      <trkpt lat="50.49389" lon="3.66793">
        <ele>53</ele>
        <time>2023-05-18T01:48:30Z</time>
      </trkpt>
      <trkpt lat="50.49418" lon="3.66741">
        <ele>54</ele>
        <time>2023-05-18T01:48:40Z</time>
      </trkpt>
      <trkpt lat="50.49389" lon="3.66695">
        <ele>53</ele>
        <time>2023-05-18T01:48:50Z</time>
      </trkpt>
      <trkpt lat="50.49333" lon="3.66607">
        <ele>53</ele>
        <time>2023-05-18T01:49:09Z</time>
      </trkpt>
      <trkpt lat="50.49282" lon="3.66535">
        <ele>54</ele>
        <time>2023-05-18T01:49:25Z</time>
      </trkpt>
      <trkpt lat="50.49251" lon="3.66471">
        <ele>54</ele>
        <time>2023-05-18T01:49:37Z</time>
      </trkpt>
      <trkpt lat="50.49236" lon="3.66454">
        <ele>53</ele>
        <time>2023-05-18T01:49:41Z</time>
      </trkpt>
      <trkpt lat="50.49221" lon="3.66461">
        <ele>52</ele>
        <time>2023-05-18T01:49:44Z</time>
      </trkpt>
      <trkpt lat="50.49214" lon="3.66481">
        <ele>52</ele>
        <time>2023-05-18T01:49:48Z</time>
      </trkpt>
      <trkpt lat="50.49192" lon="3.66466">
        <ele>51</ele>
        <time>2023-05-18T01:49:53Z</time>
      </trkpt>
      <trkpt lat="50.49192" lon="3.66435">
        <ele>50</ele>
        <time>2023-05-18T01:49:58Z</time>
      </trkpt>
      <trkpt lat="50.49204" lon="3.66386">
        <ele>50</ele>
        <time>2023-05-18T01:50:06Z</time>
      </trkpt>
      <trkpt lat="50.49232" lon="3.66348">
        <ele>51</ele>
        <time>2023-05-18T01:50:15Z</time>
      </trkpt>
      <trkpt lat="50.49249" lon="3.66342">
        <ele>52</ele>
        <time>2023-05-18T01:50:19Z</time>
      </trkpt>
      <trkpt lat="50.49294" lon="3.66376">
        <ele>53</ele>
        <time>2023-05-18T01:50:30Z</time>
      </trkpt>
      <trkpt lat="50.49269" lon="3.66344">
        <ele>53</ele>
        <time>2023-05-18T01:50:38Z</time>
      </trkpt>
      <trkpt lat="50.49211" lon="3.66197">
        <ele>44</ele>
        <time>2023-05-18T01:51:03Z</time>
      </trkpt>
      <trkpt lat="50.4918" lon="3.66127">
        <ele>39</ele>
        <time>2023-05-18T01:51:16Z</time>
      </trkpt>
      <trkpt lat="50.49319" lon="3.66175">
        <ele>51</ele>
        <time>2023-05-18T01:51:49Z</time>
      </trkpt>
      <trkpt lat="50.49401" lon="3.66216">
        <ele>54</ele>
        <time>2023-05-18T01:52:09Z</time>
      </trkpt>
      <trkpt lat="50.49466" lon="3.6624">
        <ele>54</ele>
        <time>2023-05-18T01:52:25Z</time>
      </trkpt>
      <trkpt lat="50.49531" lon="3.66259">
        <ele>55</ele>
        <time>2023-05-18T01:52:41Z</time>
      </trkpt>
      <trkpt lat="50.49606" lon="3.66284">
        <ele>55</ele>
        <time>2023-05-18T01:52:58Z</time>
      </trkpt>
      <trkpt lat="50.49629" lon="3.66286">
        <ele>55</ele>
        <time>2023-05-18T01:53:04Z</time>
      </trkpt>
      <trkpt lat="50.49671" lon="3.6634">
        <ele>53</ele>
        <time>2023-05-18T01:53:16Z</time>
      </trkpt>
      <trkpt lat="50.49702" lon="3.66389">
        <ele>55</ele>
        <time>2023-05-18T01:53:27Z</time>
      </trkpt>
      <trkpt lat="50.49762" lon="3.66487">
        <ele>53</ele>
        <time>2023-05-18T01:53:47Z</time>
      </trkpt>
      <trkpt lat="50.49767" lon="3.66494">
        <ele>53</ele>
        <time>2023-05-18T01:53:49Z</time>
      </trkpt>
      <trkpt lat="50.49708" lon="3.66616">
        <ele>49</ele>
        <time>2023-05-18T01:54:11Z</time>
      </trkpt>
      <trkpt lat="50.49731" lon="3.66591">
        <ele>49</ele>
        <time>2023-05-18T01:54:18Z</time>
      </trkpt>
      <trkpt lat="50.49757" lon="3.66575">
        <ele>49</ele>
        <time>2023-05-18T01:54:24Z</time>
      </trkpt>
      <trkpt lat="50.49775" lon="3.66565">
        <ele>48</ele>
        <time>2023-05-18T01:54:29Z</time>
      </trkpt>
      <trkpt lat="50.49798" lon="3.66547">
        <ele>48</ele>
        <time>2023-05-18T01:54:35Z</time>
      </trkpt>
      <trkpt lat="50.49834" lon="3.66515">
        <ele>46</ele>
        <time>2023-05-18T01:54:44Z</time>
      </trkpt>
      <trkpt lat="50.49866" lon="3.66486">
        <ele>44</ele>
        <time>2023-05-18T01:54:53Z</time>
      </trkpt>
      <trkpt lat="50.4988" lon="3.66342">
        <ele>44</ele>
        <time>2023-05-18T01:55:15Z</time>
      </trkpt>
      <trkpt lat="50.49905" lon="3.66337">
        <ele>40</ele>
        <time>2023-05-18T01:55:21Z</time>
      </trkpt>
      <trkpt lat="50.49952" lon="3.66325">
        <ele>37</ele>
        <time>2023-05-18T01:55:32Z</time>
      </trkpt>
      <trkpt lat="50.49987" lon="3.66315">
        <ele>35</ele>
        <time>2023-05-18T01:55:40Z</time>
      </trkpt>
      <trkpt lat="50.50021" lon="3.66315">
        <ele>36</ele>
        <time>2023-05-18T01:55:48Z</time>
      </trkpt>
      <trkpt lat="50.5003" lon="3.66298">
        <ele>36</ele>
        <time>2023-05-18T01:55:51Z</time>
      </trkpt>
      <trkpt lat="50.50033" lon="3.66282">
        <ele>36</ele>
        <time>2023-05-18T01:55:54Z</time>
      </trkpt>
      <trkpt lat="50.50027" lon="3.66254">
        <ele>36</ele>
        <time>2023-05-18T01:55:58Z</time>
      </trkpt>
      <trkpt lat="50.50012" lon="3.66259">
        <ele>35</ele>
        <time>2023-05-18T01:56:02Z</time>
      </trkpt>
      <trkpt lat="50.49996" lon="3.6625">
        <ele>35</ele>
        <time>2023-05-18T01:56:06Z</time>
      </trkpt>
      <trkpt lat="50.49938" lon="3.66178">
        <ele>36</ele>
        <time>2023-05-18T01:56:23Z</time>
      </trkpt>
      <trkpt lat="50.49823" lon="3.66034">
        <ele>35</ele>
        <time>2023-05-18T01:56:57Z</time>
      </trkpt>
      <trkpt lat="50.49739" lon="3.6593">
        <ele>35</ele>
        <time>2023-05-18T01:57:22Z</time>
      </trkpt>
      <trkpt lat="50.49692" lon="3.65881">
        <ele>34</ele>
        <time>2023-05-18T01:57:35Z</time>
      </trkpt>
      <trkpt lat="50.49637" lon="3.65842">
        <ele>34</ele>
        <time>2023-05-18T01:57:49Z</time>
      </trkpt>
      <trkpt lat="50.49596" lon="3.65816">
        <ele>36</ele>
        <time>2023-05-18T01:58:00Z</time>
      </trkpt>
      <trkpt lat="50.49551" lon="3.65801">
        <ele>37</ele>
        <time>2023-05-18T01:58:11Z</time>
      </trkpt>
      <trkpt lat="50.49521" lon="3.65787">
        <ele>37</ele>
        <time>2023-05-18T01:58:18Z</time>
      </trkpt>
      <trkpt lat="50.49491" lon="3.65782">
        <ele>36</ele>
        <time>2023-05-18T01:58:25Z</time>
      </trkpt>
      <trkpt lat="50.49448" lon="3.65777">
        <ele>35</ele>
        <time>2023-05-18T01:58:35Z</time>
      </trkpt>
      <trkpt lat="50.4937" lon="3.65778">
        <ele>33</ele>
        <time>2023-05-18T01:58:53Z</time>
      </trkpt>
      <trkpt lat="50.49305" lon="3.65791">
        <ele>32</ele>
        <time>2023-05-18T01:59:08Z</time>
      </trkpt>
      <trkpt lat="50.49256" lon="3.65806">
        <ele>31</ele>
        <time>2023-05-18T01:59:20Z</time>
      </trkpt>
      <trkpt lat="50.49241" lon="3.65802">
        <ele>31</ele>
        <time>2023-05-18T01:59:24Z</time>
      </trkpt>
      <trkpt lat="50.49231" lon="3.65793">
        <ele>31</ele>
        <time>2023-05-18T01:59:26Z</time>
      </trkpt>
      <trkpt lat="50.49223" lon="3.65781">
        <ele>31</ele>
        <time>2023-05-18T01:59:29Z</time>
      </trkpt>
      <trkpt lat="50.49218" lon="3.6576">
        <ele>31</ele>
        <time>2023-05-18T01:59:32Z</time>
      </trkpt>
      <trkpt lat="50.49224" lon="3.65721">
        <ele>33</ele>
        <time>2023-05-18T01:59:38Z</time>
      </trkpt>
      <trkpt lat="50.49264" lon="3.65585">
        <ele>35</ele>
        <time>2023-05-18T02:00:01Z</time>
      </trkpt>
      <trkpt lat="50.49289" lon="3.65497">
        <ele>35</ele>
        <time>2023-05-18T02:00:15Z</time>
      </trkpt>
      <trkpt lat="50.49332" lon="3.65358">
        <ele>34</ele>
        <time>2023-05-18T02:00:38Z</time>
      </trkpt>
      <trkpt lat="50.49372" lon="3.65219">
        <ele>33</ele>
        <time>2023-05-18T02:01:00Z</time>
      </trkpt>
      <trkpt lat="50.49395" lon="3.65223">
        <ele>34</ele>
        <time>2023-05-18T02:01:06Z</time>
      </trkpt>
      <trkpt lat="50.49413" lon="3.65244">
        <ele>36</ele>
        <time>2023-05-18T02:01:11Z</time>
      </trkpt>
      <trkpt lat="50.49431" lon="3.65288">
        <ele>36</ele>
        <time>2023-05-18T02:01:19Z</time>
      </trkpt>
      <trkpt lat="50.49458" lon="3.65285">
        <ele>37</ele>
        <time>2023-05-18T02:01:25Z</time>
      </trkpt>
      <trkpt lat="50.49539" lon="3.65296">
        <ele>41</ele>
        <time>2023-05-18T02:01:44Z</time>
      </trkpt>
      <trkpt lat="50.49565" lon="3.65395">
        <ele>43</ele>
        <time>2023-05-18T02:02:00Z</time>
      </trkpt>
      <trkpt lat="50.49573" lon="3.65419">
        <ele>44</ele>
        <time>2023-05-18T02:02:04Z</time>
      </trkpt>
      <trkpt lat="50.49583" lon="3.65429">
        <ele>45</ele>
        <time>2023-05-18T02:02:07Z</time>
      </trkpt>
      <trkpt lat="50.49667" lon="3.65487">
        <ele>44</ele>
        <time>2023-05-18T02:02:28Z</time>
      </trkpt>
      <trkpt lat="50.49674" lon="3.65499">
        <ele>44</ele>
        <time>2023-05-18T02:02:31Z</time>
      </trkpt>
      <trkpt lat="50.49704" lon="3.6541">
        <ele>46</ele>
        <time>2023-05-18T02:02:46Z</time>
      </trkpt>
      <trkpt lat="50.49719" lon="3.65246">
        <ele>51</ele>
        <time>2023-05-18T02:03:10Z</time>
      </trkpt>
      <trkpt lat="50.49744" lon="3.65157">
        <ele>57</ele>
        <time>2023-05-18T02:03:25Z</time>
      </trkpt>
      <trkpt lat="50.49729" lon="3.65023">
        <ele>61</ele>
        <time>2023-05-18T02:03:45Z</time>
      </trkpt>
      <trkpt lat="50.49751" lon="3.65001">
        <ele>62</ele>
        <time>2023-05-18T02:03:51Z</time>
      </trkpt>
      <trkpt lat="50.49766" lon="3.64907">
        <ele>63</ele>
        <time>2023-05-18T02:04:05Z</time>
      </trkpt>
      <trkpt lat="50.49792" lon="3.64742">
        <ele>68</ele>
        <time>2023-05-18T02:04:31Z</time>
      </trkpt>
      <trkpt lat="50.49803" lon="3.64695">
        <ele>70</ele>
        <time>2023-05-18T02:04:38Z</time>
      </trkpt>
      <trkpt lat="50.49809" lon="3.64652">
        <ele>71</ele>
        <time>2023-05-18T02:04:45Z</time>
      </trkpt>
      <trkpt lat="50.49847" lon="3.64391">
        <ele>70</ele>
        <time>2023-05-18T02:05:24Z</time>
      </trkpt>
      <trkpt lat="50.49826" lon="3.64259">
        <ele>58</ele>
        <time>2023-05-18T02:05:45Z</time>
      </trkpt>
      <trkpt lat="50.4991" lon="3.64125">
        <ele>53</ele>
        <time>2023-05-18T02:06:13Z</time>
      </trkpt>
      <trkpt lat="50.49998" lon="3.6398">
        <ele>45</ele>
        <time>2023-05-18T02:06:42Z</time>
      </trkpt>
      <trkpt lat="50.5005" lon="3.63894">
        <ele>39</ele>
        <time>2023-05-18T02:07:00Z</time>
      </trkpt>
      <trkpt lat="50.50027" lon="3.63817">
        <ele>41</ele>
        <time>2023-05-18T02:07:13Z</time>
      </trkpt>
      <trkpt lat="50.50016" lon="3.63777">
        <ele>43</ele>
        <time>2023-05-18T02:07:19Z</time>
      </trkpt>
      <trkpt lat="50.49996" lon="3.6371">
        <ele>45</ele>
        <time>2023-05-18T02:07:30Z</time>
      </trkpt>
      <trkpt lat="50.49962" lon="3.63603">
        <ele>44</ele>
        <time>2023-05-18T02:07:48Z</time>
      </trkpt>
      <trkpt lat="50.49951" lon="3.63569">
        <ele>44</ele>
        <time>2023-05-18T02:07:54Z</time>
      </trkpt>
      <trkpt lat="50.49943" lon="3.63548">
        <ele>44</ele>
        <time>2023-05-18T02:07:57Z</time>
      </trkpt>
      <trkpt lat="50.49923" lon="3.63572">
        <ele>45</ele>
        <time>2023-05-18T02:08:03Z</time>
      </trkpt>
      <trkpt lat="50.49838" lon="3.63754">
        <ele>56</ele>
        <time>2023-05-18T02:08:37Z</time>
      </trkpt>
      <trkpt lat="50.49818" lon="3.63806">
        <ele>58</ele>
        <time>2023-05-18T02:08:46Z</time>
      </trkpt>
      <trkpt lat="50.49808" lon="3.63805">
        <ele>59</ele>
        <time>2023-05-18T02:08:48Z</time>
      </trkpt>
      <trkpt lat="50.49806" lon="3.63793">
        <ele>58</ele>
        <time>2023-05-18T02:08:50Z</time>
      </trkpt>
      <trkpt lat="50.49791" lon="3.63784">
        <ele>59</ele>
        <time>2023-05-18T02:08:54Z</time>
      </trkpt>
      <trkpt lat="50.49798" lon="3.6377">
        <ele>59</ele>
        <time>2023-05-18T02:08:56Z</time>
      </trkpt>
      <trkpt lat="50.49807" lon="3.63701">
        <ele>59</ele>
        <time>2023-05-18T02:09:07Z</time>
      </trkpt>
      <trkpt lat="50.49809" lon="3.63604">
        <ele>65</ele>
        <time>2023-05-18T02:09:21Z</time>
      </trkpt>
      <trkpt lat="50.49788" lon="3.63507">
        <ele>72</ele>
        <time>2023-05-18T02:09:36Z</time>
      </trkpt>
      <trkpt lat="50.49793" lon="3.63378">
        <ele>70</ele>
        <time>2023-05-18T02:09:56Z</time>
      </trkpt>
      <trkpt lat="50.49766" lon="3.63239">
        <ele>72</ele>
        <time>2023-05-18T02:10:17Z</time>
      </trkpt>
      <trkpt lat="50.49754" lon="3.63114">
        <ele>73</ele>
        <time>2023-05-18T02:10:36Z</time>
      </trkpt>
      <trkpt lat="50.49755" lon="3.63038">
        <ele>72</ele>
        <time>2023-05-18T02:10:47Z</time>
      </trkpt>
      <trkpt lat="50.49756" lon="3.62971">
        <ele>73</ele>
        <time>2023-05-18T02:10:57Z</time>
      </trkpt>
      <trkpt lat="50.49757" lon="3.62914">
        <ele>73</ele>
        <time>2023-05-18T02:11:06Z</time>
      </trkpt>
      <trkpt lat="50.49749" lon="3.62848">
        <ele>71</ele>
        <time>2023-05-18T02:11:16Z</time>
      </trkpt>
      <trkpt lat="50.49748" lon="3.62812">
        <ele>71</ele>
        <time>2023-05-18T02:11:21Z</time>
      </trkpt>
      <trkpt lat="50.49755" lon="3.62769">
        <ele>70</ele>
        <time>2023-05-18T02:11:28Z</time>
      </trkpt>
      <trkpt lat="50.49746" lon="3.627">
        <ele>71</ele>
        <time>2023-05-18T02:11:38Z</time>
      </trkpt>
      <trkpt lat="50.49747" lon="3.62633">
        <ele>72</ele>
        <time>2023-05-18T02:11:48Z</time>
      </trkpt>
      <trkpt lat="50.49748" lon="3.62564">
        <ele>72</ele>
        <time>2023-05-18T02:11:58Z</time>
      </trkpt>
      <trkpt lat="50.49748" lon="3.62528">
        <ele>70</ele>
        <time>2023-05-18T02:12:04Z</time>
      </trkpt>
      <trkpt lat="50.49755" lon="3.62466">
        <ele>67</ele>
        <time>2023-05-18T02:12:13Z</time>
      </trkpt>
      <trkpt lat="50.49758" lon="3.62438">
        <ele>65</ele>
        <time>2023-05-18T02:12:17Z</time>
      </trkpt>
      <trkpt lat="50.49756" lon="3.62419">
        <ele>64</ele>
        <time>2023-05-18T02:12:20Z</time>
      </trkpt>
      <trkpt lat="50.49766" lon="3.62346">
        <ele>65</ele>
        <time>2023-05-18T02:12:31Z</time>
      </trkpt>
      <trkpt lat="50.4972" lon="3.62369">
        <ele>62</ele>
        <time>2023-05-18T02:12:42Z</time>
      </trkpt>
      <trkpt lat="50.49679" lon="3.62392">
        <ele>58</ele>
        <time>2023-05-18T02:12:53Z</time>
      </trkpt>
      <trkpt lat="50.49662" lon="3.62402">
        <ele>56</ele>
        <time>2023-05-18T02:12:57Z</time>
      </trkpt>
      <trkpt lat="50.49637" lon="3.62448">
        <ele>57</ele>
        <time>2023-05-18T02:13:06Z</time>
      </trkpt>
      <trkpt lat="50.49618" lon="3.62506">
        <ele>59</ele>
        <time>2023-05-18T02:13:15Z</time>
      </trkpt>
      <trkpt lat="50.4959" lon="3.62559">
        <ele>56</ele>
        <time>2023-05-18T02:13:26Z</time>
      </trkpt>
      <trkpt lat="50.49578" lon="3.62557">
        <ele>55</ele>
        <time>2023-05-18T02:13:28Z</time>
      </trkpt>
      <trkpt lat="50.4958" lon="3.6246">
        <ele>55</ele>
        <time>2023-05-18T02:13:43Z</time>
      </trkpt>
      <trkpt lat="50.49586" lon="3.62363">
        <ele>53</ele>
        <time>2023-05-18T02:13:57Z</time>
      </trkpt>
      <trkpt lat="50.496" lon="3.62275">
        <ele>53</ele>
        <time>2023-05-18T02:14:11Z</time>
      </trkpt>
      <trkpt lat="50.49602" lon="3.62196">
        <ele>51</ele>
        <time>2023-05-18T02:14:23Z</time>
      </trkpt>
      <trkpt lat="50.49615" lon="3.62117">
        <ele>51</ele>
        <time>2023-05-18T02:14:35Z</time>
      </trkpt>
      <trkpt lat="50.49618" lon="3.6206">
        <ele>52</ele>
        <time>2023-05-18T02:14:43Z</time>
      </trkpt>
      <trkpt lat="50.49641" lon="3.62048">
        <ele>53</ele>
        <time>2023-05-18T02:14:49Z</time>
      </trkpt>
      <trkpt lat="50.4966" lon="3.62064">
        <ele>54</ele>
        <time>2023-05-18T02:14:54Z</time>
      </trkpt>
      <trkpt lat="50.49686" lon="3.62074">
        <ele>58</ele>
        <time>2023-05-18T02:15:00Z</time>
      </trkpt>
      <trkpt lat="50.49718" lon="3.62085">
        <ele>64</ele>
        <time>2023-05-18T02:15:08Z</time>
      </trkpt>
      <trkpt lat="50.49729" lon="3.62083">
        <ele>67</ele>
        <time>2023-05-18T02:15:10Z</time>
      </trkpt>
      <trkpt lat="50.49745" lon="3.62089">
        <ele>70</ele>
        <time>2023-05-18T02:15:14Z</time>
      </trkpt>
      <trkpt lat="50.49765" lon="3.62079">
        <ele>72</ele>
        <time>2023-05-18T02:15:19Z</time>
      </trkpt>
      <trkpt lat="50.49766" lon="3.62046">
        <ele>72</ele>
        <time>2023-05-18T02:15:24Z</time>
      </trkpt>
      <trkpt lat="50.49762" lon="3.62029">
        <ele>72</ele>
        <time>2023-05-18T02:15:27Z</time>
      </trkpt>
      <trkpt lat="50.49761" lon="3.6198">
        <ele>72</ele>
        <time>2023-05-18T02:15:34Z</time>
      </trkpt>
      <trkpt lat="50.49764" lon="3.61927">
        <ele>72</ele>
        <time>2023-05-18T02:15:42Z</time>
      </trkpt>
      <trkpt lat="50.49768" lon="3.61852">
        <ele>73</ele>
        <time>2023-05-18T02:15:53Z</time>
      </trkpt>
      <trkpt lat="50.49783" lon="3.61776">
        <ele>73</ele>
        <time>2023-05-18T02:16:05Z</time>
      </trkpt>
      <trkpt lat="50.49791" lon="3.61737">
        <ele>72</ele>
        <time>2023-05-18T02:16:11Z</time>
      </trkpt>
      <trkpt lat="50.49805" lon="3.6163">
        <ele>69</ele>
        <time>2023-05-18T02:16:27Z</time>
      </trkpt>
      <trkpt lat="50.49798" lon="3.61614">
        <ele>68</ele>
        <time>2023-05-18T02:16:30Z</time>
      </trkpt>
      <trkpt lat="50.49797" lon="3.61601">
        <ele>68</ele>
        <time>2023-05-18T02:16:32Z</time>
      </trkpt>
      <trkpt lat="50.4979" lon="3.61588">
        <ele>67</ele>
        <time>2023-05-18T02:16:35Z</time>
      </trkpt>
      <trkpt lat="50.49762" lon="3.61565">
        <ele>63</ele>
        <time>2023-05-18T02:16:42Z</time>
      </trkpt>
      <trkpt lat="50.49744" lon="3.61559">
        <ele>61</ele>
        <time>2023-05-18T02:16:46Z</time>
      </trkpt>
      <trkpt lat="50.4973" lon="3.61561">
        <ele>60</ele>
        <time>2023-05-18T02:16:50Z</time>
      </trkpt>
      <trkpt lat="50.49719" lon="3.61557">
        <ele>59</ele>
        <time>2023-05-18T02:16:52Z</time>
      </trkpt>
      <trkpt lat="50.49712" lon="3.61544">
        <ele>58</ele>
        <time>2023-05-18T02:16:55Z</time>
      </trkpt>
      <trkpt lat="50.4971" lon="3.61527">
        <ele>56</ele>
        <time>2023-05-18T02:16:57Z</time>
      </trkpt>
      <trkpt lat="50.4971" lon="3.61482">
        <ele>55</ele>
        <time>2023-05-18T02:17:04Z</time>
      </trkpt>
      <trkpt lat="50.49709" lon="3.61452">
        <ele>54</ele>
        <time>2023-05-18T02:17:08Z</time>
      </trkpt>
      <trkpt lat="50.497" lon="3.61336">
        <ele>53</ele>
        <time>2023-05-18T02:17:26Z</time>
      </trkpt>
      <trkpt lat="50.49714" lon="3.61302">
        <ele>55</ele>
        <time>2023-05-18T02:17:32Z</time>
      </trkpt>
      <trkpt lat="50.49718" lon="3.6126">
        <ele>56</ele>
        <time>2023-05-18T02:17:38Z</time>
      </trkpt>
      <trkpt lat="50.49719" lon="3.61231">
        <ele>56</ele>
        <time>2023-05-18T02:17:42Z</time>
      </trkpt>
      <trkpt lat="50.49713" lon="3.61199">
        <ele>56</ele>
        <time>2023-05-18T02:17:47Z</time>
      </trkpt>
      <trkpt lat="50.49729" lon="3.61194">
        <ele>58</ele>
        <time>2023-05-18T02:17:51Z</time>
      </trkpt>
      <trkpt lat="50.4974" lon="3.61198">
        <ele>59</ele>
        <time>2023-05-18T02:17:54Z</time>
      </trkpt>
      <trkpt lat="50.49755" lon="3.61187">
        <ele>60</ele>
        <time>2023-05-18T02:17:58Z</time>
      </trkpt>
      <trkpt lat="50.49776" lon="3.61188">
        <ele>61</ele>
        <time>2023-05-18T02:18:03Z</time>
      </trkpt>
      <trkpt lat="50.4979" lon="3.61189">
        <ele>62</ele>
        <time>2023-05-18T02:18:06Z</time>
      </trkpt>
      <trkpt lat="50.49791" lon="3.61173">
        <ele>62</ele>
        <time>2023-05-18T02:18:08Z</time>
      </trkpt>
      <trkpt lat="50.49785" lon="3.61109">
        <ele>61</ele>
        <time>2023-05-18T02:18:18Z</time>
      </trkpt>
      <trkpt lat="50.49784" lon="3.61098">
        <ele>61</ele>
        <time>2023-05-18T02:18:20Z</time>
      </trkpt>
      <trkpt lat="50.49779" lon="3.61035">
        <ele>61</ele>
        <time>2023-05-18T02:18:29Z</time>
      </trkpt>
      <trkpt lat="50.4982" lon="3.61013">
        <ele>62</ele>
        <time>2023-05-18T02:18:39Z</time>
      </trkpt>
      <trkpt lat="50.49848" lon="3.60988">
        <ele>63</ele>
        <time>2023-05-18T02:18:47Z</time>
      </trkpt>
      <trkpt lat="50.49849" lon="3.60979">
        <ele>63</ele>
        <time>2023-05-18T02:18:48Z</time>
      </trkpt>
      <trkpt lat="50.49843" lon="3.60969">
        <ele>62</ele>
        <time>2023-05-18T02:18:50Z</time>
      </trkpt>
      <trkpt lat="50.49863" lon="3.60946">
        <ele>62</ele>
        <time>2023-05-18T02:18:56Z</time>
      </trkpt>
      <trkpt lat="50.49882" lon="3.60921">
        <ele>61</ele>
        <time>2023-05-18T02:19:02Z</time>
      </trkpt>
      <trkpt lat="50.49886" lon="3.60928">
        <ele>61</ele>
        <time>2023-05-18T02:19:03Z</time>
      </trkpt>
      <trkpt lat="50.49923" lon="3.60873">
        <ele>57</ele>
        <time>2023-05-18T02:19:15Z</time>
      </trkpt>
      <trkpt lat="50.49962" lon="3.60812">
        <ele>50</ele>
        <time>2023-05-18T02:19:28Z</time>
      </trkpt>
      <trkpt lat="50.49969" lon="3.60797">
        <ele>49</ele>
        <time>2023-05-18T02:19:30Z</time>
      </trkpt>
      <trkpt lat="50.50028" lon="3.60795">
        <ele>45</ele>
        <time>2023-05-18T02:19:44Z</time>
      </trkpt>
      <trkpt lat="50.50046" lon="3.60771">
        <ele>44</ele>
        <time>2023-05-18T02:19:50Z</time>
      </trkpt>
      <trkpt lat="50.50096" lon="3.60707">
        <ele>40</ele>
        <time>2023-05-18T02:20:05Z</time>
      </trkpt>
      <trkpt lat="50.50111" lon="3.60692">
        <ele>39</ele>
        <time>2023-05-18T02:20:09Z</time>
      </trkpt>
      <trkpt lat="50.50078" lon="3.60611">
        <ele>40</ele>
        <time>2023-05-18T02:20:23Z</time>
      </trkpt>
      <trkpt lat="50.5002" lon="3.60498">
        <ele>40</ele>
        <time>2023-05-18T02:20:45Z</time>
      </trkpt>
      <trkpt lat="50.49995" lon="3.60461">
        <ele>39</ele>
        <time>2023-05-18T02:20:53Z</time>
      </trkpt>
      <trkpt lat="50.50035" lon="3.60392">
        <ele>39</ele>
        <time>2023-05-18T02:21:07Z</time>
      </trkpt>
      <trkpt lat="50.50026" lon="3.60324">
        <ele>39</ele>
        <time>2023-05-18T02:21:17Z</time>
      </trkpt>
      <trkpt lat="50.5001" lon="3.60289">
        <ele>39</ele>
        <time>2023-05-18T02:21:23Z</time>
      </trkpt>
      <trkpt lat="50.50054" lon="3.60222">
        <ele>37</ele>
        <time>2023-05-18T02:21:38Z</time>
      </trkpt>
      <trkpt lat="50.50109" lon="3.60136">
        <ele>36</ele>
        <time>2023-05-18T02:21:56Z</time>
      </trkpt>
      <trkpt lat="50.50167" lon="3.60045">
        <ele>35</ele>
        <time>2023-05-18T02:22:15Z</time>
      </trkpt>
      <trkpt lat="50.50203" lon="3.59987">
        <ele>35</ele>
        <time>2023-05-18T02:22:27Z</time>
      </trkpt>
      <trkpt lat="50.50261" lon="3.59897">
        <ele>35</ele>
        <time>2023-05-18T02:22:46Z</time>
      </trkpt>
      <trkpt lat="50.50293" lon="3.59848">
        <ele>34</ele>
        <time>2023-05-18T02:22:57Z</time>
      </trkpt>
      <trkpt lat="50.50303" lon="3.59833">
        <ele>34</ele>
        <time>2023-05-18T02:23:00Z</time>
      </trkpt>
      <trkpt lat="50.50323" lon="3.59811">
        <ele>33</ele>
        <time>2023-05-18T02:23:05Z</time>
      </trkpt>
      <trkpt lat="50.50332" lon="3.59797">
        <ele>33</ele>
        <time>2023-05-18T02:23:08Z</time>
      </trkpt>
      <trkpt lat="50.50327" lon="3.59781">
        <ele>33</ele>
        <time>2023-05-18T02:23:11Z</time>
      </trkpt>
      <trkpt lat="50.50322" lon="3.59774">
        <ele>33</ele>
        <time>2023-05-18T02:23:13Z</time>
      </trkpt>
      <trkpt lat="50.5032" lon="3.59744">
        <ele>33</ele>
        <time>2023-05-18T02:23:17Z</time>
      </trkpt>
      <trkpt lat="50.5032" lon="3.59676">
        <ele>32</ele>
        <time>2023-05-18T02:23:27Z</time>
      </trkpt>
      <trkpt lat="50.50305" lon="3.59598">
        <ele>32</ele>
        <time>2023-05-18T02:23:39Z</time>
      </trkpt>
      <trkpt lat="50.50276" lon="3.59454">
        <ele>32</ele>
        <time>2023-05-18T02:24:02Z</time>
      </trkpt>
      <trkpt lat="50.50259" lon="3.59371">
        <ele>33</ele>
        <time>2023-05-18T02:24:15Z</time>
      </trkpt>
      <trkpt lat="50.50245" lon="3.59303">
        <ele>34</ele>
        <time>2023-05-18T02:24:25Z</time>
      </trkpt>
      <trkpt lat="50.5023" lon="3.59234">
        <ele>35</ele>
        <time>2023-05-18T02:24:36Z</time>
      </trkpt>
      <trkpt lat="50.50222" lon="3.59191">
        <ele>36</ele>
        <time>2023-05-18T02:24:43Z</time>
      </trkpt>
      <trkpt lat="50.50216" lon="3.59147">
        <ele>37</ele>
        <time>2023-05-18T02:24:49Z</time>
      </trkpt>
      <trkpt lat="50.50208" lon="3.59036">
        <ele>40</ele>
        <time>2023-05-18T02:25:06Z</time>
      </trkpt>
      <trkpt lat="50.50202" lon="3.58922">
        <ele>42</ele>
        <time>2023-05-18T02:25:23Z</time>
      </trkpt>
      <trkpt lat="50.50205" lon="3.58897">
        <ele>42</ele>
        <time>2023-05-18T02:25:27Z</time>
      </trkpt>
      <trkpt lat="50.50218" lon="3.5888">
        <ele>42</ele>
        <time>2023-05-18T02:25:31Z</time>
      </trkpt>
      <trkpt lat="50.50259" lon="3.5888">
        <ele>43</ele>
        <time>2023-05-18T02:25:40Z</time>
      </trkpt>
    </trkseg>
  </trk>
</gpx>